<?xml version="1.0" encoding="UTF-8" standalone="no" ?>
<gpx xmlns="http://www.topografix.com/GPX/1/1" xmlns:xsi="http://www.w3.org/2001/XMLSchema-instance" xsi:schemaLocation="http://www.topografix.com/GPX/1/1 http://www.topografix.com/GPX/1/1/gpx.xsd" version="1.1" creator="VisuGPX - https://www.visugpx.com">
  <metadata>
    <name>Les balcons de Corcieux </name>
    <desc><![CDATA[
]]></desc>
  </metadata>
  <trk>
    <name><![CDATA[2018-04-30 16:54:29]]></name>
    <trkseg>
      <trkpt lat="48.17199" lon="6.8782">
        <ele>539.44</ele>
        <time>2018-04-30T11:57:35Z</time>
      </trkpt>
      <trkpt lat="48.17195" lon="6.87822">
        <ele>540.4</ele>
        <time>2018-04-30T11:57:41Z</time>
      </trkpt>
      <trkpt lat="48.17189" lon="6.87826">
        <ele>539.44</ele>
        <time>2018-04-30T11:58:09Z</time>
      </trkpt>
      <trkpt lat="48.17183" lon="6.87833">
        <ele>540.4</ele>
        <time>2018-04-30T11:58:30Z</time>
      </trkpt>
      <trkpt lat="48.17175" lon="6.87838">
        <ele>541.36</ele>
        <time>2018-04-30T11:58:39Z</time>
      </trkpt>
      <trkpt lat="48.17174" lon="6.87839">
        <ele>541.36</ele>
        <time>2018-04-30T11:58:40Z</time>
      </trkpt>
      <trkpt lat="48.17171" lon="6.8784">
        <ele>542.8</ele>
        <time>2018-04-30T11:58:42Z</time>
      </trkpt>
      <trkpt lat="48.17167" lon="6.87842">
        <ele>543.28</ele>
        <time>2018-04-30T11:58:48Z</time>
      </trkpt>
      <trkpt lat="48.17166" lon="6.87843">
        <ele>543.28</ele>
        <time>2018-04-30T11:58:49Z</time>
      </trkpt>
      <trkpt lat="48.1716" lon="6.8785">
        <ele>541.84</ele>
        <time>2018-04-30T11:58:54Z</time>
      </trkpt>
      <trkpt lat="48.17156" lon="6.87855">
        <ele>543.28</ele>
        <time>2018-04-30T11:58:58Z</time>
      </trkpt>
      <trkpt lat="48.17144" lon="6.87863">
        <ele>544.72</ele>
        <time>2018-04-30T11:59:10Z</time>
      </trkpt>
      <trkpt lat="48.17132" lon="6.87875">
        <ele>546.65</ele>
        <time>2018-04-30T11:59:21Z</time>
      </trkpt>
      <trkpt lat="48.17126" lon="6.8788">
        <ele>545.69</ele>
        <time>2018-04-30T11:59:26Z</time>
      </trkpt>
      <trkpt lat="48.17124" lon="6.87882">
        <ele>545.69</ele>
        <time>2018-04-30T11:59:27Z</time>
      </trkpt>
      <trkpt lat="48.17122" lon="6.87885">
        <ele>547.13</ele>
        <time>2018-04-30T11:59:29Z</time>
      </trkpt>
      <trkpt lat="48.17117" lon="6.87889">
        <ele>548.57</ele>
        <time>2018-04-30T11:59:33Z</time>
      </trkpt>
      <trkpt lat="48.17098" lon="6.87904">
        <ele>550.01</ele>
        <time>2018-04-30T11:59:48Z</time>
      </trkpt>
      <trkpt lat="48.1709" lon="6.87906">
        <ele>548.57</ele>
        <time>2018-04-30T11:59:54Z</time>
      </trkpt>
      <trkpt lat="48.17077" lon="6.87914">
        <ele>550.01</ele>
        <time>2018-04-30T12:00:03Z</time>
      </trkpt>
      <trkpt lat="48.17074" lon="6.87916">
        <ele>548.57</ele>
        <time>2018-04-30T12:00:05Z</time>
      </trkpt>
      <trkpt lat="48.17057" lon="6.87924">
        <ele>549.53</ele>
        <time>2018-04-30T12:00:18Z</time>
      </trkpt>
      <trkpt lat="48.17044" lon="6.8793">
        <ele>548.57</ele>
        <time>2018-04-30T12:00:27Z</time>
      </trkpt>
      <trkpt lat="48.17026" lon="6.87939">
        <ele>550.49</ele>
        <time>2018-04-30T12:00:41Z</time>
      </trkpt>
      <trkpt lat="48.17005" lon="6.87951">
        <ele>550.97</ele>
        <time>2018-04-30T12:00:56Z</time>
      </trkpt>
      <trkpt lat="48.16982" lon="6.87963">
        <ele>550.49</ele>
        <time>2018-04-30T12:01:14Z</time>
      </trkpt>
      <trkpt lat="48.16959" lon="6.87973">
        <ele>550.49</ele>
        <time>2018-04-30T12:01:33Z</time>
      </trkpt>
      <trkpt lat="48.16954" lon="6.87976">
        <ele>549.05</ele>
        <time>2018-04-30T12:01:38Z</time>
      </trkpt>
      <trkpt lat="48.16937" lon="6.87985">
        <ele>548.57</ele>
        <time>2018-04-30T12:01:54Z</time>
      </trkpt>
      <trkpt lat="48.16931" lon="6.87996">
        <ele>548.57</ele>
        <time>2018-04-30T12:02:03Z</time>
      </trkpt>
      <trkpt lat="48.16931" lon="6.88018">
        <ele>547.61</ele>
        <time>2018-04-30T12:02:15Z</time>
      </trkpt>
      <trkpt lat="48.16918" lon="6.8802">
        <ele>546.65</ele>
        <time>2018-04-30T12:02:30Z</time>
      </trkpt>
      <trkpt lat="48.16913" lon="6.88017">
        <ele>546.17</ele>
        <time>2018-04-30T12:02:35Z</time>
      </trkpt>
      <trkpt lat="48.16902" lon="6.88011">
        <ele>546.17</ele>
        <time>2018-04-30T12:02:48Z</time>
      </trkpt>
      <trkpt lat="48.16884" lon="6.88007">
        <ele>547.61</ele>
        <time>2018-04-30T12:03:04Z</time>
      </trkpt>
      <trkpt lat="48.16868" lon="6.88006">
        <ele>548.09</ele>
        <time>2018-04-30T12:03:19Z</time>
      </trkpt>
      <trkpt lat="48.16852" lon="6.88001">
        <ele>548.09</ele>
        <time>2018-04-30T12:03:32Z</time>
      </trkpt>
      <trkpt lat="48.16849" lon="6.88">
        <ele>548.57</ele>
        <time>2018-04-30T12:03:35Z</time>
      </trkpt>
      <trkpt lat="48.16828" lon="6.87997">
        <ele>548.57</ele>
        <time>2018-04-30T12:03:53Z</time>
      </trkpt>
      <trkpt lat="48.1681" lon="6.87993">
        <ele>549.05</ele>
        <time>2018-04-30T12:04:10Z</time>
      </trkpt>
      <trkpt lat="48.168" lon="6.87993">
        <ele>549.05</ele>
        <time>2018-04-30T12:04:20Z</time>
      </trkpt>
      <trkpt lat="48.16782" lon="6.87992">
        <ele>550.49</ele>
        <time>2018-04-30T12:04:37Z</time>
      </trkpt>
      <trkpt lat="48.16766" lon="6.87994">
        <ele>550.97</ele>
        <time>2018-04-30T12:04:52Z</time>
      </trkpt>
      <trkpt lat="48.16765" lon="6.87995">
        <ele>550.97</ele>
        <time>2018-04-30T12:04:53Z</time>
      </trkpt>
      <trkpt lat="48.16762" lon="6.87995">
        <ele>550.97</ele>
        <time>2018-04-30T12:04:56Z</time>
      </trkpt>
      <trkpt lat="48.1676" lon="6.87995">
        <ele>550.97</ele>
        <time>2018-04-30T12:04:58Z</time>
      </trkpt>
      <trkpt lat="48.16759" lon="6.87995">
        <ele>550.97</ele>
        <time>2018-04-30T12:04:59Z</time>
      </trkpt>
      <trkpt lat="48.16752" lon="6.87995">
        <ele>551.45</ele>
        <time>2018-04-30T12:05:06Z</time>
      </trkpt>
      <trkpt lat="48.16751" lon="6.87995">
        <ele>551.93</ele>
        <time>2018-04-30T12:05:08Z</time>
      </trkpt>
      <trkpt lat="48.16728" lon="6.87996">
        <ele>553.86</ele>
        <time>2018-04-30T12:05:26Z</time>
      </trkpt>
      <trkpt lat="48.1672" lon="6.87997">
        <ele>553.86</ele>
        <time>2018-04-30T12:05:33Z</time>
      </trkpt>
      <trkpt lat="48.16708" lon="6.87996">
        <ele>555.3</ele>
        <time>2018-04-30T12:05:47Z</time>
      </trkpt>
      <trkpt lat="48.16707" lon="6.87996">
        <ele>553.38</ele>
        <time>2018-04-30T12:05:53Z</time>
      </trkpt>
      <trkpt lat="48.16691" lon="6.87998">
        <ele>553.86</ele>
        <time>2018-04-30T12:06:08Z</time>
      </trkpt>
      <trkpt lat="48.16684" lon="6.88001">
        <ele>552.41</ele>
        <time>2018-04-30T12:06:14Z</time>
      </trkpt>
      <trkpt lat="48.16675" lon="6.88005">
        <ele>553.86</ele>
        <time>2018-04-30T12:06:21Z</time>
      </trkpt>
      <trkpt lat="48.16655" lon="6.88012">
        <ele>554.34</ele>
        <time>2018-04-30T12:06:37Z</time>
      </trkpt>
      <trkpt lat="48.16648" lon="6.88018">
        <ele>554.82</ele>
        <time>2018-04-30T12:06:45Z</time>
      </trkpt>
      <trkpt lat="48.16626" lon="6.8802">
        <ele>555.78</ele>
        <time>2018-04-30T12:07:03Z</time>
      </trkpt>
      <trkpt lat="48.16605" lon="6.88017">
        <ele>557.7</ele>
        <time>2018-04-30T12:07:20Z</time>
      </trkpt>
      <trkpt lat="48.16588" lon="6.88014">
        <ele>558.18</ele>
        <time>2018-04-30T12:07:35Z</time>
      </trkpt>
      <trkpt lat="48.16565" lon="6.8801">
        <ele>558.18</ele>
        <time>2018-04-30T12:07:54Z</time>
      </trkpt>
      <trkpt lat="48.16547" lon="6.88007">
        <ele>560.11</ele>
        <time>2018-04-30T12:08:11Z</time>
      </trkpt>
      <trkpt lat="48.1653" lon="6.88004">
        <ele>561.55</ele>
        <time>2018-04-30T12:08:26Z</time>
      </trkpt>
      <trkpt lat="48.16518" lon="6.88002">
        <ele>560.59</ele>
        <time>2018-04-30T12:08:37Z</time>
      </trkpt>
      <trkpt lat="48.16516" lon="6.88002">
        <ele>560.59</ele>
        <time>2018-04-30T12:08:39Z</time>
      </trkpt>
      <trkpt lat="48.16505" lon="6.87994">
        <ele>560.59</ele>
        <time>2018-04-30T12:08:51Z</time>
      </trkpt>
      <trkpt lat="48.16496" lon="6.87974">
        <ele>562.51</ele>
        <time>2018-04-30T12:09:05Z</time>
      </trkpt>
      <trkpt lat="48.16493" lon="6.87948">
        <ele>562.51</ele>
        <time>2018-04-30T12:09:21Z</time>
      </trkpt>
      <trkpt lat="48.1649" lon="6.87924">
        <ele>562.99</ele>
        <time>2018-04-30T12:09:35Z</time>
      </trkpt>
      <trkpt lat="48.16482" lon="6.87899">
        <ele>562.99</ele>
        <time>2018-04-30T12:09:52Z</time>
      </trkpt>
      <trkpt lat="48.16472" lon="6.87876">
        <ele>562.99</ele>
        <time>2018-04-30T12:10:09Z</time>
      </trkpt>
      <trkpt lat="48.16464" lon="6.87857">
        <ele>561.55</ele>
        <time>2018-04-30T12:10:23Z</time>
      </trkpt>
      <trkpt lat="48.16463" lon="6.87853">
        <ele>561.55</ele>
        <time>2018-04-30T12:10:37Z</time>
      </trkpt>
      <trkpt lat="48.16463" lon="6.87855">
        <ele>562.03</ele>
        <time>2018-04-30T12:10:40Z</time>
      </trkpt>
      <trkpt lat="48.16457" lon="6.87846">
        <ele>562.03</ele>
        <time>2018-04-30T12:10:52Z</time>
      </trkpt>
      <trkpt lat="48.16446" lon="6.87823">
        <ele>560.59</ele>
        <time>2018-04-30T12:11:08Z</time>
      </trkpt>
      <trkpt lat="48.16436" lon="6.87805">
        <ele>560.11</ele>
        <time>2018-04-30T12:11:21Z</time>
      </trkpt>
      <trkpt lat="48.1643" lon="6.87788">
        <ele>561.55</ele>
        <time>2018-04-30T12:11:36Z</time>
      </trkpt>
      <trkpt lat="48.16425" lon="6.87772">
        <ele>561.55</ele>
        <time>2018-04-30T12:11:47Z</time>
      </trkpt>
      <trkpt lat="48.16419" lon="6.87759">
        <ele>562.03</ele>
        <time>2018-04-30T12:12:00Z</time>
      </trkpt>
      <trkpt lat="48.16409" lon="6.87734">
        <ele>562.03</ele>
        <time>2018-04-30T12:12:16Z</time>
      </trkpt>
      <trkpt lat="48.16396" lon="6.87706">
        <ele>562.03</ele>
        <time>2018-04-30T12:12:34Z</time>
      </trkpt>
      <trkpt lat="48.16395" lon="6.87705">
        <ele>562.03</ele>
        <time>2018-04-30T12:12:35Z</time>
      </trkpt>
      <trkpt lat="48.16384" lon="6.87681">
        <ele>562.99</ele>
        <time>2018-04-30T12:12:51Z</time>
      </trkpt>
      <trkpt lat="48.16371" lon="6.87654">
        <ele>562.03</ele>
        <time>2018-04-30T12:13:10Z</time>
      </trkpt>
      <trkpt lat="48.16358" lon="6.87626">
        <ele>562.03</ele>
        <time>2018-04-30T12:13:29Z</time>
      </trkpt>
      <trkpt lat="48.16352" lon="6.87614">
        <ele>563.47</ele>
        <time>2018-04-30T12:13:38Z</time>
      </trkpt>
      <trkpt lat="48.16341" lon="6.87591">
        <ele>564.43</ele>
        <time>2018-04-30T12:13:55Z</time>
      </trkpt>
      <trkpt lat="48.16331" lon="6.8757">
        <ele>564.43</ele>
        <time>2018-04-30T12:14:11Z</time>
      </trkpt>
      <trkpt lat="48.16317" lon="6.87544">
        <ele>564.91</ele>
        <time>2018-04-30T12:14:30Z</time>
      </trkpt>
      <trkpt lat="48.16306" lon="6.87517">
        <ele>564.91</ele>
        <time>2018-04-30T12:14:48Z</time>
      </trkpt>
      <trkpt lat="48.16298" lon="6.87491">
        <ele>564.91</ele>
        <time>2018-04-30T12:15:04Z</time>
      </trkpt>
      <trkpt lat="48.16295" lon="6.8746">
        <ele>564.91</ele>
        <time>2018-04-30T12:15:22Z</time>
      </trkpt>
      <trkpt lat="48.16294" lon="6.87444">
        <ele>564.91</ele>
        <time>2018-04-30T12:15:32Z</time>
      </trkpt>
      <trkpt lat="48.16295" lon="6.87436">
        <ele>564.91</ele>
        <time>2018-04-30T12:15:36Z</time>
      </trkpt>
      <trkpt lat="48.16297" lon="6.87406">
        <ele>565.39</ele>
        <time>2018-04-30T12:15:53Z</time>
      </trkpt>
      <trkpt lat="48.16297" lon="6.87379">
        <ele>565.39</ele>
        <time>2018-04-30T12:16:09Z</time>
      </trkpt>
      <trkpt lat="48.16293" lon="6.87359">
        <ele>565.87</ele>
        <time>2018-04-30T12:16:22Z</time>
      </trkpt>
      <trkpt lat="48.1629" lon="6.8735">
        <ele>567.32</ele>
        <time>2018-04-30T12:16:28Z</time>
      </trkpt>
      <trkpt lat="48.16289" lon="6.87347">
        <ele>565.87</ele>
        <time>2018-04-30T12:16:30Z</time>
      </trkpt>
      <trkpt lat="48.16288" lon="6.87344">
        <ele>564.43</ele>
        <time>2018-04-30T12:16:32Z</time>
      </trkpt>
      <trkpt lat="48.16287" lon="6.87341">
        <ele>565.87</ele>
        <time>2018-04-30T12:16:34Z</time>
      </trkpt>
      <trkpt lat="48.16284" lon="6.87334">
        <ele>565.87</ele>
        <time>2018-04-30T12:16:39Z</time>
      </trkpt>
      <trkpt lat="48.16282" lon="6.87329">
        <ele>566.35</ele>
        <time>2018-04-30T12:16:43Z</time>
      </trkpt>
      <trkpt lat="48.1627" lon="6.87331">
        <ele>566.35</ele>
        <time>2018-04-30T12:16:56Z</time>
      </trkpt>
      <trkpt lat="48.16255" lon="6.87335">
        <ele>566.35</ele>
        <time>2018-04-30T12:17:10Z</time>
      </trkpt>
      <trkpt lat="48.16248" lon="6.8734">
        <ele>567.8</ele>
        <time>2018-04-30T12:17:18Z</time>
      </trkpt>
      <trkpt lat="48.16237" lon="6.87351">
        <ele>568.76</ele>
        <time>2018-04-30T12:17:32Z</time>
      </trkpt>
      <trkpt lat="48.16225" lon="6.87363">
        <ele>570.2</ele>
        <time>2018-04-30T12:17:47Z</time>
      </trkpt>
      <trkpt lat="48.16216" lon="6.87369">
        <ele>570.68</ele>
        <time>2018-04-30T12:17:55Z</time>
      </trkpt>
      <trkpt lat="48.16212" lon="6.8737">
        <ele>571.16</ele>
        <time>2018-04-30T12:17:59Z</time>
      </trkpt>
      <trkpt lat="48.162" lon="6.87361">
        <ele>573.08</ele>
        <time>2018-04-30T12:18:14Z</time>
      </trkpt>
      <trkpt lat="48.16194" lon="6.87348">
        <ele>574.04</ele>
        <time>2018-04-30T12:18:23Z</time>
      </trkpt>
      <trkpt lat="48.16187" lon="6.87339">
        <ele>575.49</ele>
        <time>2018-04-30T12:18:33Z</time>
      </trkpt>
      <trkpt lat="48.16174" lon="6.87333">
        <ele>577.41</ele>
        <time>2018-04-30T12:18:49Z</time>
      </trkpt>
      <trkpt lat="48.16163" lon="6.87329">
        <ele>578.85</ele>
        <time>2018-04-30T12:19:02Z</time>
      </trkpt>
      <trkpt lat="48.16158" lon="6.87322">
        <ele>578.85</ele>
        <time>2018-04-30T12:19:09Z</time>
      </trkpt>
      <trkpt lat="48.16155" lon="6.87307">
        <ele>581.25</ele>
        <time>2018-04-30T12:19:20Z</time>
      </trkpt>
      <trkpt lat="48.16155" lon="6.87293">
        <ele>583.18</ele>
        <time>2018-04-30T12:19:31Z</time>
      </trkpt>
      <trkpt lat="48.16155" lon="6.87292">
        <ele>583.18</ele>
        <time>2018-04-30T12:19:32Z</time>
      </trkpt>
      <trkpt lat="48.16156" lon="6.8727">
        <ele>584.62</ele>
        <time>2018-04-30T12:19:47Z</time>
      </trkpt>
      <trkpt lat="48.16159" lon="6.87247">
        <ele>584.14</ele>
        <time>2018-04-30T12:20:01Z</time>
      </trkpt>
      <trkpt lat="48.16161" lon="6.87228">
        <ele>584.62</ele>
        <time>2018-04-30T12:20:15Z</time>
      </trkpt>
      <trkpt lat="48.16162" lon="6.87227">
        <ele>585.1</ele>
        <time>2018-04-30T12:20:30Z</time>
      </trkpt>
      <trkpt lat="48.1616" lon="6.87224">
        <ele>585.1</ele>
        <time>2018-04-30T12:20:46Z</time>
      </trkpt>
      <trkpt lat="48.16162" lon="6.87224">
        <ele>583.66</ele>
        <time>2018-04-30T12:21:08Z</time>
      </trkpt>
      <trkpt lat="48.16163" lon="6.87224">
        <ele>584.62</ele>
        <time>2018-04-30T12:21:28Z</time>
      </trkpt>
      <trkpt lat="48.16163" lon="6.87224">
        <ele>584.62</ele>
        <time>2018-04-30T12:21:56Z</time>
      </trkpt>
      <trkpt lat="48.16162" lon="6.87222">
        <ele>584.14</ele>
        <time>2018-04-30T12:22:20Z</time>
      </trkpt>
      <trkpt lat="48.16162" lon="6.87222">
        <ele>585.58</ele>
        <time>2018-04-30T12:22:22Z</time>
      </trkpt>
      <trkpt lat="48.16163" lon="6.8722">
        <ele>585.58</ele>
        <time>2018-04-30T12:22:36Z</time>
      </trkpt>
      <trkpt lat="48.16163" lon="6.87212">
        <ele>584.62</ele>
        <time>2018-04-30T12:22:42Z</time>
      </trkpt>
      <trkpt lat="48.16164" lon="6.87199">
        <ele>586.06</ele>
        <time>2018-04-30T12:22:55Z</time>
      </trkpt>
      <trkpt lat="48.16163" lon="6.87182">
        <ele>586.06</ele>
        <time>2018-04-30T12:23:07Z</time>
      </trkpt>
      <trkpt lat="48.16161" lon="6.87163">
        <ele>586.54</ele>
        <time>2018-04-30T12:23:22Z</time>
      </trkpt>
      <trkpt lat="48.1616" lon="6.87147">
        <ele>586.54</ele>
        <time>2018-04-30T12:23:34Z</time>
      </trkpt>
      <trkpt lat="48.16158" lon="6.87133">
        <ele>586.54</ele>
        <time>2018-04-30T12:23:46Z</time>
      </trkpt>
      <trkpt lat="48.16155" lon="6.87119">
        <ele>588.46</ele>
        <time>2018-04-30T12:23:59Z</time>
      </trkpt>
      <trkpt lat="48.16151" lon="6.8711">
        <ele>588.95</ele>
        <time>2018-04-30T12:24:07Z</time>
      </trkpt>
      <trkpt lat="48.16142" lon="6.87083">
        <ele>590.39</ele>
        <time>2018-04-30T12:24:23Z</time>
      </trkpt>
      <trkpt lat="48.16134" lon="6.8707">
        <ele>590.87</ele>
        <time>2018-04-30T12:24:39Z</time>
      </trkpt>
      <trkpt lat="48.16127" lon="6.87055">
        <ele>592.79</ele>
        <time>2018-04-30T12:24:52Z</time>
      </trkpt>
      <trkpt lat="48.16119" lon="6.87046">
        <ele>592.79</ele>
        <time>2018-04-30T12:25:05Z</time>
      </trkpt>
      <trkpt lat="48.16111" lon="6.87033">
        <ele>594.71</ele>
        <time>2018-04-30T12:25:18Z</time>
      </trkpt>
      <trkpt lat="48.16104" lon="6.87021">
        <ele>595.67</ele>
        <time>2018-04-30T12:25:30Z</time>
      </trkpt>
      <trkpt lat="48.16095" lon="6.8701">
        <ele>595.19</ele>
        <time>2018-04-30T12:25:41Z</time>
      </trkpt>
      <trkpt lat="48.16088" lon="6.87004">
        <ele>596.64</ele>
        <time>2018-04-30T12:25:48Z</time>
      </trkpt>
      <trkpt lat="48.16082" lon="6.87002">
        <ele>595.19</ele>
        <time>2018-04-30T12:25:54Z</time>
      </trkpt>
      <trkpt lat="48.16079" lon="6.87001">
        <ele>596.64</ele>
        <time>2018-04-30T12:25:57Z</time>
      </trkpt>
      <trkpt lat="48.16067" lon="6.86993">
        <ele>595.19</ele>
        <time>2018-04-30T12:26:11Z</time>
      </trkpt>
      <trkpt lat="48.16054" lon="6.86991">
        <ele>594.71</ele>
        <time>2018-04-30T12:26:25Z</time>
      </trkpt>
      <trkpt lat="48.16038" lon="6.8699">
        <ele>595.67</ele>
        <time>2018-04-30T12:26:38Z</time>
      </trkpt>
      <trkpt lat="48.16028" lon="6.86993">
        <ele>596.64</ele>
        <time>2018-04-30T12:26:49Z</time>
      </trkpt>
      <trkpt lat="48.16015" lon="6.86997">
        <ele>596.64</ele>
        <time>2018-04-30T12:27:02Z</time>
      </trkpt>
      <trkpt lat="48.15998" lon="6.87005">
        <ele>597.12</ele>
        <time>2018-04-30T12:27:15Z</time>
      </trkpt>
      <trkpt lat="48.15987" lon="6.87009">
        <ele>598.08</ele>
        <time>2018-04-30T12:27:26Z</time>
      </trkpt>
      <trkpt lat="48.1597" lon="6.87016">
        <ele>600</ele>
        <time>2018-04-30T12:27:41Z</time>
      </trkpt>
      <trkpt lat="48.15957" lon="6.87018">
        <ele>600</ele>
        <time>2018-04-30T12:27:54Z</time>
      </trkpt>
      <trkpt lat="48.15943" lon="6.87024">
        <ele>600</ele>
        <time>2018-04-30T12:28:08Z</time>
      </trkpt>
      <trkpt lat="48.15927" lon="6.87028">
        <ele>600</ele>
        <time>2018-04-30T12:28:21Z</time>
      </trkpt>
      <trkpt lat="48.15921" lon="6.87031">
        <ele>600</ele>
        <time>2018-04-30T12:28:25Z</time>
      </trkpt>
      <trkpt lat="48.15915" lon="6.87033">
        <ele>598.56</ele>
        <time>2018-04-30T12:28:31Z</time>
      </trkpt>
      <trkpt lat="48.1591" lon="6.87035">
        <ele>598.08</ele>
        <time>2018-04-30T12:28:38Z</time>
      </trkpt>
      <trkpt lat="48.15899" lon="6.87041">
        <ele>599.04</ele>
        <time>2018-04-30T12:28:51Z</time>
      </trkpt>
      <trkpt lat="48.15882" lon="6.87044">
        <ele>599.52</ele>
        <time>2018-04-30T12:29:04Z</time>
      </trkpt>
      <trkpt lat="48.15876" lon="6.87045">
        <ele>598.08</ele>
        <time>2018-04-30T12:29:09Z</time>
      </trkpt>
      <trkpt lat="48.15864" lon="6.87043">
        <ele>599.04</ele>
        <time>2018-04-30T12:29:21Z</time>
      </trkpt>
      <trkpt lat="48.1585" lon="6.87043">
        <ele>599.52</ele>
        <time>2018-04-30T12:29:36Z</time>
      </trkpt>
      <trkpt lat="48.15837" lon="6.87039">
        <ele>599.52</ele>
        <time>2018-04-30T12:29:49Z</time>
      </trkpt>
      <trkpt lat="48.15822" lon="6.87038">
        <ele>599.04</ele>
        <time>2018-04-30T12:30:03Z</time>
      </trkpt>
      <trkpt lat="48.15807" lon="6.87035">
        <ele>597.12</ele>
        <time>2018-04-30T12:30:18Z</time>
      </trkpt>
      <trkpt lat="48.15797" lon="6.8703">
        <ele>598.56</ele>
        <time>2018-04-30T12:30:31Z</time>
      </trkpt>
      <trkpt lat="48.15783" lon="6.87013">
        <ele>598.56</ele>
        <time>2018-04-30T12:30:45Z</time>
      </trkpt>
      <trkpt lat="48.1577" lon="6.87005">
        <ele>599.04</ele>
        <time>2018-04-30T12:30:58Z</time>
      </trkpt>
      <trkpt lat="48.1576" lon="6.87002">
        <ele>599.52</ele>
        <time>2018-04-30T12:31:12Z</time>
      </trkpt>
      <trkpt lat="48.15753" lon="6.86992">
        <ele>599.52</ele>
        <time>2018-04-30T12:31:25Z</time>
      </trkpt>
      <trkpt lat="48.15738" lon="6.86977">
        <ele>600</ele>
        <time>2018-04-30T12:31:40Z</time>
      </trkpt>
      <trkpt lat="48.15724" lon="6.86968">
        <ele>599.52</ele>
        <time>2018-04-30T12:31:54Z</time>
      </trkpt>
      <trkpt lat="48.15712" lon="6.86956">
        <ele>599.52</ele>
        <time>2018-04-30T12:32:08Z</time>
      </trkpt>
      <trkpt lat="48.157" lon="6.86952">
        <ele>599.52</ele>
        <time>2018-04-30T12:32:18Z</time>
      </trkpt>
      <trkpt lat="48.15684" lon="6.86945">
        <ele>600</ele>
        <time>2018-04-30T12:32:32Z</time>
      </trkpt>
      <trkpt lat="48.15671" lon="6.86936">
        <ele>600.48</ele>
        <time>2018-04-30T12:32:44Z</time>
      </trkpt>
      <trkpt lat="48.15656" lon="6.86926">
        <ele>600.48</ele>
        <time>2018-04-30T12:32:58Z</time>
      </trkpt>
      <trkpt lat="48.15643" lon="6.86919">
        <ele>600.48</ele>
        <time>2018-04-30T12:33:11Z</time>
      </trkpt>
      <trkpt lat="48.15631" lon="6.86913">
        <ele>600.48</ele>
        <time>2018-04-30T12:33:26Z</time>
      </trkpt>
      <trkpt lat="48.15618" lon="6.86917">
        <ele>600.48</ele>
        <time>2018-04-30T12:33:41Z</time>
      </trkpt>
      <trkpt lat="48.15618" lon="6.86917">
        <ele>600.48</ele>
        <time>2018-04-30T12:33:42Z</time>
      </trkpt>
      <trkpt lat="48.15606" lon="6.86916">
        <ele>602.4</ele>
        <time>2018-04-30T12:33:51Z</time>
      </trkpt>
      <trkpt lat="48.15592" lon="6.86921">
        <ele>602.88</ele>
        <time>2018-04-30T12:34:05Z</time>
      </trkpt>
      <trkpt lat="48.15581" lon="6.86926">
        <ele>603.85</ele>
        <time>2018-04-30T12:34:19Z</time>
      </trkpt>
      <trkpt lat="48.15573" lon="6.86935">
        <ele>605.29</ele>
        <time>2018-04-30T12:34:31Z</time>
      </trkpt>
      <trkpt lat="48.15565" lon="6.8695">
        <ele>606.25</ele>
        <time>2018-04-30T12:34:46Z</time>
      </trkpt>
      <trkpt lat="48.15554" lon="6.86971">
        <ele>606.25</ele>
        <time>2018-04-30T12:35:02Z</time>
      </trkpt>
      <trkpt lat="48.15541" lon="6.86982">
        <ele>606.73</ele>
        <time>2018-04-30T12:35:16Z</time>
      </trkpt>
      <trkpt lat="48.1553" lon="6.86983">
        <ele>606.73</ele>
        <time>2018-04-30T12:35:31Z</time>
      </trkpt>
      <trkpt lat="48.1552" lon="6.8698">
        <ele>607.21</ele>
        <time>2018-04-30T12:35:43Z</time>
      </trkpt>
      <trkpt lat="48.15512" lon="6.86975">
        <ele>608.17</ele>
        <time>2018-04-30T12:35:57Z</time>
      </trkpt>
      <trkpt lat="48.15511" lon="6.86972">
        <ele>606.73</ele>
        <time>2018-04-30T12:36:03Z</time>
      </trkpt>
      <trkpt lat="48.15501" lon="6.86969">
        <ele>606.25</ele>
        <time>2018-04-30T12:36:18Z</time>
      </trkpt>
      <trkpt lat="48.1549" lon="6.86964">
        <ele>605.77</ele>
        <time>2018-04-30T12:36:32Z</time>
      </trkpt>
      <trkpt lat="48.15479" lon="6.86968">
        <ele>607.69</ele>
        <time>2018-04-30T12:36:43Z</time>
      </trkpt>
      <trkpt lat="48.15478" lon="6.86969">
        <ele>607.69</ele>
        <time>2018-04-30T12:36:44Z</time>
      </trkpt>
      <trkpt lat="48.15462" lon="6.8698">
        <ele>608.17</ele>
        <time>2018-04-30T12:36:59Z</time>
      </trkpt>
      <trkpt lat="48.15453" lon="6.86986">
        <ele>608.17</ele>
        <time>2018-04-30T12:37:11Z</time>
      </trkpt>
      <trkpt lat="48.15446" lon="6.86991">
        <ele>609.61</ele>
        <time>2018-04-30T12:37:24Z</time>
      </trkpt>
      <trkpt lat="48.15432" lon="6.86993">
        <ele>610.09</ele>
        <time>2018-04-30T12:37:35Z</time>
      </trkpt>
      <trkpt lat="48.15421" lon="6.86993">
        <ele>610.09</ele>
        <time>2018-04-30T12:37:48Z</time>
      </trkpt>
      <trkpt lat="48.15412" lon="6.86996">
        <ele>612.02</ele>
        <time>2018-04-30T12:38:01Z</time>
      </trkpt>
      <trkpt lat="48.15402" lon="6.86998">
        <ele>611.54</ele>
        <time>2018-04-30T12:38:15Z</time>
      </trkpt>
      <trkpt lat="48.15392" lon="6.86999">
        <ele>612.5</ele>
        <time>2018-04-30T12:38:27Z</time>
      </trkpt>
      <trkpt lat="48.15376" lon="6.87004">
        <ele>613.46</ele>
        <time>2018-04-30T12:38:39Z</time>
      </trkpt>
      <trkpt lat="48.15365" lon="6.87018">
        <ele>613.46</ele>
        <time>2018-04-30T12:38:52Z</time>
      </trkpt>
      <trkpt lat="48.15356" lon="6.87036">
        <ele>613.46</ele>
        <time>2018-04-30T12:39:06Z</time>
      </trkpt>
      <trkpt lat="48.15349" lon="6.87049">
        <ele>613.46</ele>
        <time>2018-04-30T12:39:18Z</time>
      </trkpt>
      <trkpt lat="48.15342" lon="6.87062">
        <ele>613.94</ele>
        <time>2018-04-30T12:39:30Z</time>
      </trkpt>
      <trkpt lat="48.15337" lon="6.87074">
        <ele>613.94</ele>
        <time>2018-04-30T12:39:42Z</time>
      </trkpt>
      <trkpt lat="48.15329" lon="6.87089">
        <ele>614.9</ele>
        <time>2018-04-30T12:39:54Z</time>
      </trkpt>
      <trkpt lat="48.1532" lon="6.87099">
        <ele>616.82</ele>
        <time>2018-04-30T12:40:09Z</time>
      </trkpt>
      <trkpt lat="48.15309" lon="6.87105">
        <ele>616.34</ele>
        <time>2018-04-30T12:40:22Z</time>
      </trkpt>
      <trkpt lat="48.15294" lon="6.87111">
        <ele>617.3</ele>
        <time>2018-04-30T12:40:36Z</time>
      </trkpt>
      <trkpt lat="48.15279" lon="6.87115">
        <ele>616.82</ele>
        <time>2018-04-30T12:40:50Z</time>
      </trkpt>
      <trkpt lat="48.15277" lon="6.87116">
        <ele>616.82</ele>
        <time>2018-04-30T12:40:52Z</time>
      </trkpt>
      <trkpt lat="48.15262" lon="6.87116">
        <ele>617.78</ele>
        <time>2018-04-30T12:41:06Z</time>
      </trkpt>
      <trkpt lat="48.1525" lon="6.8711">
        <ele>619.23</ele>
        <time>2018-04-30T12:41:17Z</time>
      </trkpt>
      <trkpt lat="48.15243" lon="6.87098">
        <ele>619.71</ele>
        <time>2018-04-30T12:41:31Z</time>
      </trkpt>
      <trkpt lat="48.15242" lon="6.87095">
        <ele>620.19</ele>
        <time>2018-04-30T12:41:34Z</time>
      </trkpt>
      <trkpt lat="48.15229" lon="6.8708">
        <ele>622.11</ele>
        <time>2018-04-30T12:41:49Z</time>
      </trkpt>
      <trkpt lat="48.15216" lon="6.8707">
        <ele>620.19</ele>
        <time>2018-04-30T12:42:03Z</time>
      </trkpt>
      <trkpt lat="48.15202" lon="6.8706">
        <ele>621.63</ele>
        <time>2018-04-30T12:42:18Z</time>
      </trkpt>
      <trkpt lat="48.15197" lon="6.87056">
        <ele>619.23</ele>
        <time>2018-04-30T12:42:23Z</time>
      </trkpt>
      <trkpt lat="48.15186" lon="6.87048">
        <ele>620.67</ele>
        <time>2018-04-30T12:42:35Z</time>
      </trkpt>
      <trkpt lat="48.15186" lon="6.87048">
        <ele>619.71</ele>
        <time>2018-04-30T12:42:41Z</time>
      </trkpt>
      <trkpt lat="48.15184" lon="6.87046">
        <ele>618.75</ele>
        <time>2018-04-30T12:43:00Z</time>
      </trkpt>
      <trkpt lat="48.15183" lon="6.87046">
        <ele>620.19</ele>
        <time>2018-04-30T12:43:13Z</time>
      </trkpt>
      <trkpt lat="48.15182" lon="6.87045">
        <ele>618.75</ele>
        <time>2018-04-30T12:43:23Z</time>
      </trkpt>
      <trkpt lat="48.15183" lon="6.87047">
        <ele>618.26</ele>
        <time>2018-04-30T12:43:32Z</time>
      </trkpt>
      <trkpt lat="48.15184" lon="6.87049">
        <ele>620.67</ele>
        <time>2018-04-30T12:43:52Z</time>
      </trkpt>
      <trkpt lat="48.15185" lon="6.87049">
        <ele>619.23</ele>
        <time>2018-04-30T12:44:05Z</time>
      </trkpt>
      <trkpt lat="48.15183" lon="6.87049">
        <ele>618.75</ele>
        <time>2018-04-30T12:44:27Z</time>
      </trkpt>
      <trkpt lat="48.15184" lon="6.87049">
        <ele>619.71</ele>
        <time>2018-04-30T12:44:44Z</time>
      </trkpt>
      <trkpt lat="48.15175" lon="6.87055">
        <ele>622.59</ele>
        <time>2018-04-30T12:44:58Z</time>
      </trkpt>
      <trkpt lat="48.15172" lon="6.87073">
        <ele>623.07</ele>
        <time>2018-04-30T12:45:13Z</time>
      </trkpt>
      <trkpt lat="48.15164" lon="6.87096">
        <ele>623.07</ele>
        <time>2018-04-30T12:45:29Z</time>
      </trkpt>
      <trkpt lat="48.15164" lon="6.87099">
        <ele>621.63</ele>
        <time>2018-04-30T12:45:31Z</time>
      </trkpt>
      <trkpt lat="48.15163" lon="6.87115">
        <ele>621.63</ele>
        <time>2018-04-30T12:45:41Z</time>
      </trkpt>
      <trkpt lat="48.15164" lon="6.8713">
        <ele>621.15</ele>
        <time>2018-04-30T12:45:56Z</time>
      </trkpt>
      <trkpt lat="48.15161" lon="6.87144">
        <ele>622.11</ele>
        <time>2018-04-30T12:46:11Z</time>
      </trkpt>
      <trkpt lat="48.15163" lon="6.87158">
        <ele>622.11</ele>
        <time>2018-04-30T12:46:22Z</time>
      </trkpt>
      <trkpt lat="48.15158" lon="6.87174">
        <ele>623.07</ele>
        <time>2018-04-30T12:46:35Z</time>
      </trkpt>
      <trkpt lat="48.15154" lon="6.87182">
        <ele>623.07</ele>
        <time>2018-04-30T12:46:47Z</time>
      </trkpt>
      <trkpt lat="48.15148" lon="6.87192">
        <ele>623.55</ele>
        <time>2018-04-30T12:46:58Z</time>
      </trkpt>
      <trkpt lat="48.15144" lon="6.87198">
        <ele>623.55</ele>
        <time>2018-04-30T12:47:02Z</time>
      </trkpt>
      <trkpt lat="48.15134" lon="6.87212">
        <ele>624.99</ele>
        <time>2018-04-30T12:47:15Z</time>
      </trkpt>
      <trkpt lat="48.1513" lon="6.87223">
        <ele>624.99</ele>
        <time>2018-04-30T12:47:26Z</time>
      </trkpt>
      <trkpt lat="48.15125" lon="6.87247">
        <ele>626.44</ele>
        <time>2018-04-30T12:47:40Z</time>
      </trkpt>
      <trkpt lat="48.15119" lon="6.87265">
        <ele>627.4</ele>
        <time>2018-04-30T12:47:54Z</time>
      </trkpt>
      <trkpt lat="48.15113" lon="6.87283">
        <ele>629.32</ele>
        <time>2018-04-30T12:48:10Z</time>
      </trkpt>
      <trkpt lat="48.15109" lon="6.87295">
        <ele>629.8</ele>
        <time>2018-04-30T12:48:18Z</time>
      </trkpt>
      <trkpt lat="48.15107" lon="6.87299">
        <ele>627.88</ele>
        <time>2018-04-30T12:48:21Z</time>
      </trkpt>
      <trkpt lat="48.15102" lon="6.8731">
        <ele>629.32</ele>
        <time>2018-04-30T12:48:31Z</time>
      </trkpt>
      <trkpt lat="48.15099" lon="6.87319">
        <ele>630.76</ele>
        <time>2018-04-30T12:48:43Z</time>
      </trkpt>
      <trkpt lat="48.15097" lon="6.87329">
        <ele>632.68</ele>
        <time>2018-04-30T12:48:54Z</time>
      </trkpt>
      <trkpt lat="48.15091" lon="6.87341">
        <ele>632.68</ele>
        <time>2018-04-30T12:49:08Z</time>
      </trkpt>
      <trkpt lat="48.15091" lon="6.87344">
        <ele>632.68</ele>
        <time>2018-04-30T12:49:10Z</time>
      </trkpt>
      <trkpt lat="48.15085" lon="6.8736">
        <ele>633.65</ele>
        <time>2018-04-30T12:49:24Z</time>
      </trkpt>
      <trkpt lat="48.15079" lon="6.87378">
        <ele>633.65</ele>
        <time>2018-04-30T12:49:37Z</time>
      </trkpt>
      <trkpt lat="48.15075" lon="6.8739">
        <ele>634.13</ele>
        <time>2018-04-30T12:49:50Z</time>
      </trkpt>
      <trkpt lat="48.15071" lon="6.87412">
        <ele>635.57</ele>
        <time>2018-04-30T12:50:03Z</time>
      </trkpt>
      <trkpt lat="48.15069" lon="6.87429">
        <ele>637.01</ele>
        <time>2018-04-30T12:50:15Z</time>
      </trkpt>
      <trkpt lat="48.15067" lon="6.87442">
        <ele>637.49</ele>
        <time>2018-04-30T12:50:26Z</time>
      </trkpt>
      <trkpt lat="48.15063" lon="6.87465">
        <ele>638.93</ele>
        <time>2018-04-30T12:50:39Z</time>
      </trkpt>
      <trkpt lat="48.15066" lon="6.87483">
        <ele>641.34</ele>
        <time>2018-04-30T12:50:52Z</time>
      </trkpt>
      <trkpt lat="48.15065" lon="6.87493">
        <ele>641.34</ele>
        <time>2018-04-30T12:51:00Z</time>
      </trkpt>
      <trkpt lat="48.15059" lon="6.87511">
        <ele>641.34</ele>
        <time>2018-04-30T12:51:12Z</time>
      </trkpt>
      <trkpt lat="48.15054" lon="6.87527">
        <ele>641.82</ele>
        <time>2018-04-30T12:51:25Z</time>
      </trkpt>
      <trkpt lat="48.15047" lon="6.87547">
        <ele>641.82</ele>
        <time>2018-04-30T12:51:40Z</time>
      </trkpt>
      <trkpt lat="48.15047" lon="6.87549">
        <ele>641.82</ele>
        <time>2018-04-30T12:51:41Z</time>
      </trkpt>
      <trkpt lat="48.1504" lon="6.87573">
        <ele>642.78</ele>
        <time>2018-04-30T12:51:57Z</time>
      </trkpt>
      <trkpt lat="48.15039" lon="6.87575">
        <ele>642.78</ele>
        <time>2018-04-30T12:51:59Z</time>
      </trkpt>
      <trkpt lat="48.15035" lon="6.87584">
        <ele>642.78</ele>
        <time>2018-04-30T12:52:05Z</time>
      </trkpt>
      <trkpt lat="48.15033" lon="6.87588">
        <ele>642.78</ele>
        <time>2018-04-30T12:52:09Z</time>
      </trkpt>
      <trkpt lat="48.15028" lon="6.87595">
        <ele>643.26</ele>
        <time>2018-04-30T12:52:16Z</time>
      </trkpt>
      <trkpt lat="48.15021" lon="6.87604">
        <ele>643.74</ele>
        <time>2018-04-30T12:52:23Z</time>
      </trkpt>
      <trkpt lat="48.15013" lon="6.87619">
        <ele>644.22</ele>
        <time>2018-04-30T12:52:34Z</time>
      </trkpt>
      <trkpt lat="48.15005" lon="6.87634">
        <ele>644.22</ele>
        <time>2018-04-30T12:52:48Z</time>
      </trkpt>
      <trkpt lat="48.14998" lon="6.87653">
        <ele>644.7</ele>
        <time>2018-04-30T12:53:03Z</time>
      </trkpt>
      <trkpt lat="48.14989" lon="6.87671">
        <ele>645.18</ele>
        <time>2018-04-30T12:53:16Z</time>
      </trkpt>
      <trkpt lat="48.14983" lon="6.87687">
        <ele>645.66</ele>
        <time>2018-04-30T12:53:26Z</time>
      </trkpt>
      <trkpt lat="48.14977" lon="6.87701">
        <ele>646.62</ele>
        <time>2018-04-30T12:53:39Z</time>
      </trkpt>
      <trkpt lat="48.14974" lon="6.8771">
        <ele>646.62</ele>
        <time>2018-04-30T12:53:52Z</time>
      </trkpt>
      <trkpt lat="48.14973" lon="6.87714">
        <ele>646.62</ele>
        <time>2018-04-30T12:53:55Z</time>
      </trkpt>
      <trkpt lat="48.14965" lon="6.87731">
        <ele>647.1</ele>
        <time>2018-04-30T12:54:10Z</time>
      </trkpt>
      <trkpt lat="48.14963" lon="6.87738">
        <ele>647.1</ele>
        <time>2018-04-30T12:54:15Z</time>
      </trkpt>
      <trkpt lat="48.14956" lon="6.87757">
        <ele>647.1</ele>
        <time>2018-04-30T12:54:28Z</time>
      </trkpt>
      <trkpt lat="48.1495" lon="6.87772">
        <ele>647.1</ele>
        <time>2018-04-30T12:54:41Z</time>
      </trkpt>
      <trkpt lat="48.14949" lon="6.87774">
        <ele>648.55</ele>
        <time>2018-04-30T12:54:43Z</time>
      </trkpt>
      <trkpt lat="48.14944" lon="6.87783">
        <ele>648.55</ele>
        <time>2018-04-30T12:54:56Z</time>
      </trkpt>
      <trkpt lat="48.1494" lon="6.87795">
        <ele>649.03</ele>
        <time>2018-04-30T12:55:08Z</time>
      </trkpt>
      <trkpt lat="48.14939" lon="6.87797">
        <ele>647.59</ele>
        <time>2018-04-30T12:55:10Z</time>
      </trkpt>
      <trkpt lat="48.14933" lon="6.87812">
        <ele>647.59</ele>
        <time>2018-04-30T12:55:22Z</time>
      </trkpt>
      <trkpt lat="48.14926" lon="6.8783">
        <ele>647.59</ele>
        <time>2018-04-30T12:55:36Z</time>
      </trkpt>
      <trkpt lat="48.1492" lon="6.87844">
        <ele>648.07</ele>
        <time>2018-04-30T12:55:49Z</time>
      </trkpt>
      <trkpt lat="48.14911" lon="6.87858">
        <ele>647.59</ele>
        <time>2018-04-30T12:56:04Z</time>
      </trkpt>
      <trkpt lat="48.14906" lon="6.87866">
        <ele>647.59</ele>
        <time>2018-04-30T12:56:12Z</time>
      </trkpt>
      <trkpt lat="48.14898" lon="6.87879">
        <ele>646.14</ele>
        <time>2018-04-30T12:56:25Z</time>
      </trkpt>
      <trkpt lat="48.14894" lon="6.87885">
        <ele>645.66</ele>
        <time>2018-04-30T12:56:30Z</time>
      </trkpt>
      <trkpt lat="48.14884" lon="6.87897">
        <ele>645.66</ele>
        <time>2018-04-30T12:56:43Z</time>
      </trkpt>
      <trkpt lat="48.14877" lon="6.87908">
        <ele>645.66</ele>
        <time>2018-04-30T12:56:57Z</time>
      </trkpt>
      <trkpt lat="48.14868" lon="6.87925">
        <ele>648.07</ele>
        <time>2018-04-30T12:57:09Z</time>
      </trkpt>
      <trkpt lat="48.14858" lon="6.87942">
        <ele>649.03</ele>
        <time>2018-04-30T12:57:21Z</time>
      </trkpt>
      <trkpt lat="48.14856" lon="6.87944">
        <ele>649.03</ele>
        <time>2018-04-30T12:57:22Z</time>
      </trkpt>
      <trkpt lat="48.14853" lon="6.87952">
        <ele>647.59</ele>
        <time>2018-04-30T12:57:27Z</time>
      </trkpt>
      <trkpt lat="48.14847" lon="6.87968">
        <ele>646.14</ele>
        <time>2018-04-30T12:57:39Z</time>
      </trkpt>
      <trkpt lat="48.1484" lon="6.87988">
        <ele>645.66</ele>
        <time>2018-04-30T12:57:52Z</time>
      </trkpt>
      <trkpt lat="48.14832" lon="6.88008">
        <ele>644.22</ele>
        <time>2018-04-30T12:58:04Z</time>
      </trkpt>
      <trkpt lat="48.14824" lon="6.88031">
        <ele>643.74</ele>
        <time>2018-04-30T12:58:21Z</time>
      </trkpt>
      <trkpt lat="48.14818" lon="6.8805">
        <ele>645.66</ele>
        <time>2018-04-30T12:58:35Z</time>
      </trkpt>
      <trkpt lat="48.14815" lon="6.88064">
        <ele>648.55</ele>
        <time>2018-04-30T12:58:46Z</time>
      </trkpt>
      <trkpt lat="48.14812" lon="6.88082">
        <ele>649.51</ele>
        <time>2018-04-30T12:58:58Z</time>
      </trkpt>
      <trkpt lat="48.14806" lon="6.88099">
        <ele>648.07</ele>
        <time>2018-04-30T12:59:11Z</time>
      </trkpt>
      <trkpt lat="48.14803" lon="6.88112">
        <ele>645.66</ele>
        <time>2018-04-30T12:59:24Z</time>
      </trkpt>
      <trkpt lat="48.14799" lon="6.88125">
        <ele>647.1</ele>
        <time>2018-04-30T12:59:37Z</time>
      </trkpt>
      <trkpt lat="48.14798" lon="6.88144">
        <ele>648.55</ele>
        <time>2018-04-30T12:59:50Z</time>
      </trkpt>
      <trkpt lat="48.14798" lon="6.88159">
        <ele>649.03</ele>
        <time>2018-04-30T13:00:01Z</time>
      </trkpt>
      <trkpt lat="48.14797" lon="6.88169">
        <ele>649.99</ele>
        <time>2018-04-30T13:00:11Z</time>
      </trkpt>
      <trkpt lat="48.14793" lon="6.88189">
        <ele>651.43</ele>
        <time>2018-04-30T13:00:21Z</time>
      </trkpt>
      <trkpt lat="48.1479" lon="6.88203">
        <ele>652.87</ele>
        <time>2018-04-30T13:00:31Z</time>
      </trkpt>
      <trkpt lat="48.14786" lon="6.88226">
        <ele>652.87</ele>
        <time>2018-04-30T13:00:45Z</time>
      </trkpt>
      <trkpt lat="48.1478" lon="6.88241">
        <ele>652.87</ele>
        <time>2018-04-30T13:00:58Z</time>
      </trkpt>
      <trkpt lat="48.14778" lon="6.88257">
        <ele>652.87</ele>
        <time>2018-04-30T13:01:12Z</time>
      </trkpt>
      <trkpt lat="48.14771" lon="6.88273">
        <ele>652.39</ele>
        <time>2018-04-30T13:01:25Z</time>
      </trkpt>
      <trkpt lat="48.14767" lon="6.88292">
        <ele>653.35</ele>
        <time>2018-04-30T13:01:40Z</time>
      </trkpt>
      <trkpt lat="48.14764" lon="6.88309">
        <ele>653.83</ele>
        <time>2018-04-30T13:01:53Z</time>
      </trkpt>
      <trkpt lat="48.14757" lon="6.88326">
        <ele>654.8</ele>
        <time>2018-04-30T13:02:03Z</time>
      </trkpt>
      <trkpt lat="48.14753" lon="6.88336">
        <ele>654.8</ele>
        <time>2018-04-30T13:02:15Z</time>
      </trkpt>
      <trkpt lat="48.14747" lon="6.88357">
        <ele>655.76</ele>
        <time>2018-04-30T13:02:28Z</time>
      </trkpt>
      <trkpt lat="48.14741" lon="6.88371">
        <ele>656.72</ele>
        <time>2018-04-30T13:02:39Z</time>
      </trkpt>
      <trkpt lat="48.14739" lon="6.88377">
        <ele>656.72</ele>
        <time>2018-04-30T13:02:55Z</time>
      </trkpt>
      <trkpt lat="48.14745" lon="6.8838">
        <ele>657.2</ele>
        <time>2018-04-30T13:03:25Z</time>
      </trkpt>
      <trkpt lat="48.14742" lon="6.88379">
        <ele>657.2</ele>
        <time>2018-04-30T13:03:47Z</time>
      </trkpt>
      <trkpt lat="48.14736" lon="6.88376">
        <ele>656.72</ele>
        <time>2018-04-30T13:04:07Z</time>
      </trkpt>
      <trkpt lat="48.14735" lon="6.88373">
        <ele>657.2</ele>
        <time>2018-04-30T13:04:33Z</time>
      </trkpt>
      <trkpt lat="48.14726" lon="6.88377">
        <ele>657.2</ele>
        <time>2018-04-30T13:04:58Z</time>
      </trkpt>
      <trkpt lat="48.14727" lon="6.88377">
        <ele>657.68</ele>
        <time>2018-04-30T13:05:08Z</time>
      </trkpt>
      <trkpt lat="48.14731" lon="6.88375">
        <ele>657.68</ele>
        <time>2018-04-30T13:05:33Z</time>
      </trkpt>
      <trkpt lat="48.14732" lon="6.88371">
        <ele>659.12</ele>
        <time>2018-04-30T13:05:55Z</time>
      </trkpt>
      <trkpt lat="48.14731" lon="6.88374">
        <ele>660.08</ele>
        <time>2018-04-30T13:06:13Z</time>
      </trkpt>
      <trkpt lat="48.1473" lon="6.8837">
        <ele>658.16</ele>
        <time>2018-04-30T13:06:21Z</time>
      </trkpt>
      <trkpt lat="48.14737" lon="6.88366">
        <ele>659.6</ele>
        <time>2018-04-30T13:06:41Z</time>
      </trkpt>
      <trkpt lat="48.14739" lon="6.88363">
        <ele>660.08</ele>
        <time>2018-04-30T13:07:04Z</time>
      </trkpt>
      <trkpt lat="48.1474" lon="6.88366">
        <ele>660.56</ele>
        <time>2018-04-30T13:07:26Z</time>
      </trkpt>
      <trkpt lat="48.14741" lon="6.88365">
        <ele>660.56</ele>
        <time>2018-04-30T13:07:40Z</time>
      </trkpt>
      <trkpt lat="48.14745" lon="6.88352">
        <ele>661.04</ele>
        <time>2018-04-30T13:07:53Z</time>
      </trkpt>
      <trkpt lat="48.1475" lon="6.88341">
        <ele>659.6</ele>
        <time>2018-04-30T13:08:04Z</time>
      </trkpt>
      <trkpt lat="48.14757" lon="6.88328">
        <ele>659.12</ele>
        <time>2018-04-30T13:08:18Z</time>
      </trkpt>
      <trkpt lat="48.14762" lon="6.88318">
        <ele>658.64</ele>
        <time>2018-04-30T13:08:32Z</time>
      </trkpt>
      <trkpt lat="48.1477" lon="6.88293">
        <ele>657.68</ele>
        <time>2018-04-30T13:08:45Z</time>
      </trkpt>
      <trkpt lat="48.14772" lon="6.88288">
        <ele>658.64</ele>
        <time>2018-04-30T13:08:49Z</time>
      </trkpt>
      <trkpt lat="48.14777" lon="6.88277">
        <ele>657.2</ele>
        <time>2018-04-30T13:08:56Z</time>
      </trkpt>
      <trkpt lat="48.1478" lon="6.88269">
        <ele>658.64</ele>
        <time>2018-04-30T13:09:02Z</time>
      </trkpt>
      <trkpt lat="48.14787" lon="6.88246">
        <ele>659.12</ele>
        <time>2018-04-30T13:09:16Z</time>
      </trkpt>
      <trkpt lat="48.14795" lon="6.88229">
        <ele>659.6</ele>
        <time>2018-04-30T13:09:33Z</time>
      </trkpt>
      <trkpt lat="48.14802" lon="6.8822">
        <ele>661.04</ele>
        <time>2018-04-30T13:09:50Z</time>
      </trkpt>
      <trkpt lat="48.14811" lon="6.88208">
        <ele>661.04</ele>
        <time>2018-04-30T13:10:04Z</time>
      </trkpt>
      <trkpt lat="48.1482" lon="6.88197">
        <ele>662.97</ele>
        <time>2018-04-30T13:10:19Z</time>
      </trkpt>
      <trkpt lat="48.14826" lon="6.88191">
        <ele>664.41</ele>
        <time>2018-04-30T13:10:32Z</time>
      </trkpt>
      <trkpt lat="48.14833" lon="6.88182">
        <ele>664.89</ele>
        <time>2018-04-30T13:10:44Z</time>
      </trkpt>
      <trkpt lat="48.14842" lon="6.88169">
        <ele>665.37</ele>
        <time>2018-04-30T13:10:59Z</time>
      </trkpt>
      <trkpt lat="48.14852" lon="6.88154">
        <ele>665.85</ele>
        <time>2018-04-30T13:11:12Z</time>
      </trkpt>
      <trkpt lat="48.14859" lon="6.88141">
        <ele>665.85</ele>
        <time>2018-04-30T13:11:25Z</time>
      </trkpt>
      <trkpt lat="48.14866" lon="6.88129">
        <ele>665.85</ele>
        <time>2018-04-30T13:11:37Z</time>
      </trkpt>
      <trkpt lat="48.14871" lon="6.88116">
        <ele>666.33</ele>
        <time>2018-04-30T13:11:49Z</time>
      </trkpt>
      <trkpt lat="48.14879" lon="6.88103">
        <ele>666.33</ele>
        <time>2018-04-30T13:12:03Z</time>
      </trkpt>
      <trkpt lat="48.14884" lon="6.88092">
        <ele>666.81</ele>
        <time>2018-04-30T13:12:15Z</time>
      </trkpt>
      <trkpt lat="48.1489" lon="6.88077">
        <ele>667.77</ele>
        <time>2018-04-30T13:12:28Z</time>
      </trkpt>
      <trkpt lat="48.14898" lon="6.88059">
        <ele>667.77</ele>
        <time>2018-04-30T13:12:43Z</time>
      </trkpt>
      <trkpt lat="48.14905" lon="6.88041">
        <ele>666.33</ele>
        <time>2018-04-30T13:12:55Z</time>
      </trkpt>
      <trkpt lat="48.14916" lon="6.88027">
        <ele>665.37</ele>
        <time>2018-04-30T13:13:09Z</time>
      </trkpt>
      <trkpt lat="48.14929" lon="6.88013">
        <ele>664.89</ele>
        <time>2018-04-30T13:13:24Z</time>
      </trkpt>
      <trkpt lat="48.14939" lon="6.88">
        <ele>664.89</ele>
        <time>2018-04-30T13:13:36Z</time>
      </trkpt>
      <trkpt lat="48.14949" lon="6.87989">
        <ele>664.89</ele>
        <time>2018-04-30T13:13:48Z</time>
      </trkpt>
      <trkpt lat="48.14959" lon="6.87978">
        <ele>664.89</ele>
        <time>2018-04-30T13:14:01Z</time>
      </trkpt>
      <trkpt lat="48.14971" lon="6.87965">
        <ele>665.37</ele>
        <time>2018-04-30T13:14:15Z</time>
      </trkpt>
      <trkpt lat="48.1498" lon="6.87958">
        <ele>666.33</ele>
        <time>2018-04-30T13:14:24Z</time>
      </trkpt>
      <trkpt lat="48.14988" lon="6.87948">
        <ele>666.33</ele>
        <time>2018-04-30T13:14:32Z</time>
      </trkpt>
      <trkpt lat="48.14997" lon="6.87939">
        <ele>666.33</ele>
        <time>2018-04-30T13:14:42Z</time>
      </trkpt>
      <trkpt lat="48.15009" lon="6.87929">
        <ele>666.33</ele>
        <time>2018-04-30T13:14:57Z</time>
      </trkpt>
      <trkpt lat="48.15021" lon="6.87915">
        <ele>666.81</ele>
        <time>2018-04-30T13:15:13Z</time>
      </trkpt>
      <trkpt lat="48.1503" lon="6.8791">
        <ele>667.77</ele>
        <time>2018-04-30T13:15:25Z</time>
      </trkpt>
      <trkpt lat="48.15041" lon="6.87923">
        <ele>668.73</ele>
        <time>2018-04-30T13:15:37Z</time>
      </trkpt>
      <trkpt lat="48.15047" lon="6.87932">
        <ele>669.7</ele>
        <time>2018-04-30T13:15:46Z</time>
      </trkpt>
      <trkpt lat="48.15048" lon="6.87933">
        <ele>670.18</ele>
        <time>2018-04-30T13:15:47Z</time>
      </trkpt>
      <trkpt lat="48.15047" lon="6.87934">
        <ele>670.18</ele>
        <time>2018-04-30T13:15:48Z</time>
      </trkpt>
      <trkpt lat="48.15053" lon="6.87946">
        <ele>671.62</ele>
        <time>2018-04-30T13:15:59Z</time>
      </trkpt>
      <trkpt lat="48.15056" lon="6.87957">
        <ele>671.62</ele>
        <time>2018-04-30T13:16:11Z</time>
      </trkpt>
      <trkpt lat="48.1506" lon="6.87968">
        <ele>672.1</ele>
        <time>2018-04-30T13:16:23Z</time>
      </trkpt>
      <trkpt lat="48.15063" lon="6.87978">
        <ele>674.5</ele>
        <time>2018-04-30T13:16:36Z</time>
      </trkpt>
      <trkpt lat="48.15066" lon="6.8799">
        <ele>674.98</ele>
        <time>2018-04-30T13:16:49Z</time>
      </trkpt>
      <trkpt lat="48.15072" lon="6.88001">
        <ele>677.39</ele>
        <time>2018-04-30T13:17:00Z</time>
      </trkpt>
      <trkpt lat="48.15075" lon="6.88009">
        <ele>677.87</ele>
        <time>2018-04-30T13:17:11Z</time>
      </trkpt>
      <trkpt lat="48.15083" lon="6.88023">
        <ele>679.79</ele>
        <time>2018-04-30T13:17:23Z</time>
      </trkpt>
      <trkpt lat="48.15086" lon="6.88034">
        <ele>681.23</ele>
        <time>2018-04-30T13:17:34Z</time>
      </trkpt>
      <trkpt lat="48.15089" lon="6.88042">
        <ele>681.23</ele>
        <time>2018-04-30T13:17:44Z</time>
      </trkpt>
      <trkpt lat="48.15095" lon="6.88056">
        <ele>682.67</ele>
        <time>2018-04-30T13:17:57Z</time>
      </trkpt>
      <trkpt lat="48.15098" lon="6.88063">
        <ele>683.63</ele>
        <time>2018-04-30T13:18:09Z</time>
      </trkpt>
      <trkpt lat="48.15102" lon="6.88074">
        <ele>685.56</ele>
        <time>2018-04-30T13:18:20Z</time>
      </trkpt>
      <trkpt lat="48.15108" lon="6.88089">
        <ele>686.52</ele>
        <time>2018-04-30T13:18:34Z</time>
      </trkpt>
      <trkpt lat="48.15109" lon="6.88099">
        <ele>687.48</ele>
        <time>2018-04-30T13:18:43Z</time>
      </trkpt>
      <trkpt lat="48.15113" lon="6.88109">
        <ele>687.48</ele>
        <time>2018-04-30T13:18:52Z</time>
      </trkpt>
      <trkpt lat="48.15116" lon="6.88119">
        <ele>687.96</ele>
        <time>2018-04-30T13:19:02Z</time>
      </trkpt>
      <trkpt lat="48.15117" lon="6.88133">
        <ele>688.92</ele>
        <time>2018-04-30T13:19:13Z</time>
      </trkpt>
      <trkpt lat="48.15119" lon="6.88149">
        <ele>688.92</ele>
        <time>2018-04-30T13:19:23Z</time>
      </trkpt>
      <trkpt lat="48.15122" lon="6.88163">
        <ele>688.44</ele>
        <time>2018-04-30T13:19:34Z</time>
      </trkpt>
      <trkpt lat="48.15123" lon="6.8817">
        <ele>688.44</ele>
        <time>2018-04-30T13:19:38Z</time>
      </trkpt>
      <trkpt lat="48.15123" lon="6.88185">
        <ele>688.44</ele>
        <time>2018-04-30T13:19:50Z</time>
      </trkpt>
      <trkpt lat="48.1513" lon="6.88202">
        <ele>687.48</ele>
        <time>2018-04-30T13:20:02Z</time>
      </trkpt>
      <trkpt lat="48.15136" lon="6.88205">
        <ele>688.92</ele>
        <time>2018-04-30T13:20:14Z</time>
      </trkpt>
      <trkpt lat="48.15137" lon="6.88203">
        <ele>688.44</ele>
        <time>2018-04-30T13:20:39Z</time>
      </trkpt>
      <trkpt lat="48.15137" lon="6.88202">
        <ele>688.92</ele>
        <time>2018-04-30T13:20:51Z</time>
      </trkpt>
      <trkpt lat="48.15137" lon="6.88203">
        <ele>688.92</ele>
        <time>2018-04-30T13:21:08Z</time>
      </trkpt>
      <trkpt lat="48.15135" lon="6.88203">
        <ele>688.92</ele>
        <time>2018-04-30T13:21:37Z</time>
      </trkpt>
      <trkpt lat="48.15137" lon="6.88203">
        <ele>688.92</ele>
        <time>2018-04-30T13:22:00Z</time>
      </trkpt>
      <trkpt lat="48.15141" lon="6.88213">
        <ele>688.44</ele>
        <time>2018-04-30T13:22:12Z</time>
      </trkpt>
      <trkpt lat="48.15142" lon="6.88225">
        <ele>689.4</ele>
        <time>2018-04-30T13:22:20Z</time>
      </trkpt>
      <trkpt lat="48.15141" lon="6.88232">
        <ele>689.4</ele>
        <time>2018-04-30T13:22:24Z</time>
      </trkpt>
      <trkpt lat="48.1514" lon="6.88234">
        <ele>687.96</ele>
        <time>2018-04-30T13:22:26Z</time>
      </trkpt>
      <trkpt lat="48.15136" lon="6.88242">
        <ele>687.96</ele>
        <time>2018-04-30T13:22:32Z</time>
      </trkpt>
      <trkpt lat="48.15135" lon="6.88247">
        <ele>688.92</ele>
        <time>2018-04-30T13:22:36Z</time>
      </trkpt>
      <trkpt lat="48.15134" lon="6.88249">
        <ele>689.4</ele>
        <time>2018-04-30T13:22:37Z</time>
      </trkpt>
      <trkpt lat="48.1513" lon="6.8826">
        <ele>690.84</ele>
        <time>2018-04-30T13:22:45Z</time>
      </trkpt>
      <trkpt lat="48.15127" lon="6.88265">
        <ele>688.92</ele>
        <time>2018-04-30T13:22:49Z</time>
      </trkpt>
      <trkpt lat="48.15122" lon="6.88277">
        <ele>688.44</ele>
        <time>2018-04-30T13:22:58Z</time>
      </trkpt>
      <trkpt lat="48.15116" lon="6.88285">
        <ele>688.44</ele>
        <time>2018-04-30T13:23:05Z</time>
      </trkpt>
      <trkpt lat="48.15112" lon="6.8829">
        <ele>688.44</ele>
        <time>2018-04-30T13:23:10Z</time>
      </trkpt>
      <trkpt lat="48.15106" lon="6.88301">
        <ele>689.88</ele>
        <time>2018-04-30T13:23:19Z</time>
      </trkpt>
      <trkpt lat="48.15105" lon="6.88302">
        <ele>689.88</ele>
        <time>2018-04-30T13:23:20Z</time>
      </trkpt>
      <trkpt lat="48.15096" lon="6.88322">
        <ele>688.44</ele>
        <time>2018-04-30T13:23:36Z</time>
      </trkpt>
      <trkpt lat="48.15093" lon="6.88328">
        <ele>688.44</ele>
        <time>2018-04-30T13:23:42Z</time>
      </trkpt>
      <trkpt lat="48.15084" lon="6.88343">
        <ele>690.36</ele>
        <time>2018-04-30T13:23:56Z</time>
      </trkpt>
      <trkpt lat="48.15083" lon="6.88346">
        <ele>690.36</ele>
        <time>2018-04-30T13:23:59Z</time>
      </trkpt>
      <trkpt lat="48.15076" lon="6.8836">
        <ele>690.84</ele>
        <time>2018-04-30T13:24:12Z</time>
      </trkpt>
      <trkpt lat="48.15072" lon="6.88366">
        <ele>690.84</ele>
        <time>2018-04-30T13:24:17Z</time>
      </trkpt>
      <trkpt lat="48.15071" lon="6.88369">
        <ele>690.84</ele>
        <time>2018-04-30T13:24:20Z</time>
      </trkpt>
      <trkpt lat="48.15064" lon="6.88381">
        <ele>691.33</ele>
        <time>2018-04-30T13:24:32Z</time>
      </trkpt>
      <trkpt lat="48.15064" lon="6.88399">
        <ele>691.81</ele>
        <time>2018-04-30T13:24:45Z</time>
      </trkpt>
      <trkpt lat="48.15064" lon="6.88401">
        <ele>691.81</ele>
        <time>2018-04-30T13:24:47Z</time>
      </trkpt>
      <trkpt lat="48.15065" lon="6.88405">
        <ele>691.81</ele>
        <time>2018-04-30T13:24:50Z</time>
      </trkpt>
      <trkpt lat="48.15064" lon="6.88409">
        <ele>690.36</ele>
        <time>2018-04-30T13:24:53Z</time>
      </trkpt>
      <trkpt lat="48.15064" lon="6.88424">
        <ele>688.44</ele>
        <time>2018-04-30T13:25:05Z</time>
      </trkpt>
      <trkpt lat="48.15065" lon="6.88441">
        <ele>687.96</ele>
        <time>2018-04-30T13:25:19Z</time>
      </trkpt>
      <trkpt lat="48.15063" lon="6.88456">
        <ele>687.48</ele>
        <time>2018-04-30T13:25:31Z</time>
      </trkpt>
      <trkpt lat="48.15064" lon="6.88465">
        <ele>688.92</ele>
        <time>2018-04-30T13:25:39Z</time>
      </trkpt>
      <trkpt lat="48.15066" lon="6.88478">
        <ele>685.56</ele>
        <time>2018-04-30T13:25:51Z</time>
      </trkpt>
      <trkpt lat="48.1507" lon="6.88493">
        <ele>683.63</ele>
        <time>2018-04-30T13:26:05Z</time>
      </trkpt>
      <trkpt lat="48.15073" lon="6.8851">
        <ele>682.67</ele>
        <time>2018-04-30T13:26:18Z</time>
      </trkpt>
      <trkpt lat="48.15081" lon="6.88526">
        <ele>681.23</ele>
        <time>2018-04-30T13:26:33Z</time>
      </trkpt>
      <trkpt lat="48.15083" lon="6.88529">
        <ele>682.19</ele>
        <time>2018-04-30T13:26:39Z</time>
      </trkpt>
      <trkpt lat="48.15084" lon="6.88531">
        <ele>679.79</ele>
        <time>2018-04-30T13:26:56Z</time>
      </trkpt>
      <trkpt lat="48.15086" lon="6.88535">
        <ele>679.79</ele>
        <time>2018-04-30T13:27:14Z</time>
      </trkpt>
      <trkpt lat="48.15088" lon="6.88547">
        <ele>679.31</ele>
        <time>2018-04-30T13:27:29Z</time>
      </trkpt>
      <trkpt lat="48.15086" lon="6.8855">
        <ele>680.75</ele>
        <time>2018-04-30T13:27:33Z</time>
      </trkpt>
      <trkpt lat="48.1508" lon="6.8856">
        <ele>680.75</ele>
        <time>2018-04-30T13:27:45Z</time>
      </trkpt>
      <trkpt lat="48.15072" lon="6.88579">
        <ele>680.75</ele>
        <time>2018-04-30T13:27:59Z</time>
      </trkpt>
      <trkpt lat="48.15067" lon="6.88589">
        <ele>681.23</ele>
        <time>2018-04-30T13:28:11Z</time>
      </trkpt>
      <trkpt lat="48.1506" lon="6.88609">
        <ele>682.67</ele>
        <time>2018-04-30T13:28:29Z</time>
      </trkpt>
      <trkpt lat="48.15052" lon="6.88628">
        <ele>683.63</ele>
        <time>2018-04-30T13:28:47Z</time>
      </trkpt>
      <trkpt lat="48.15051" lon="6.88631">
        <ele>683.63</ele>
        <time>2018-04-30T13:28:50Z</time>
      </trkpt>
      <trkpt lat="48.15039" lon="6.88654">
        <ele>685.08</ele>
        <time>2018-04-30T13:29:11Z</time>
      </trkpt>
      <trkpt lat="48.15032" lon="6.88668">
        <ele>686.04</ele>
        <time>2018-04-30T13:29:25Z</time>
      </trkpt>
      <trkpt lat="48.15025" lon="6.88682">
        <ele>687.96</ele>
        <time>2018-04-30T13:29:40Z</time>
      </trkpt>
      <trkpt lat="48.15016" lon="6.88696">
        <ele>688.92</ele>
        <time>2018-04-30T13:29:54Z</time>
      </trkpt>
      <trkpt lat="48.15008" lon="6.88711">
        <ele>689.88</ele>
        <time>2018-04-30T13:30:10Z</time>
      </trkpt>
      <trkpt lat="48.14998" lon="6.88723">
        <ele>691.81</ele>
        <time>2018-04-30T13:30:26Z</time>
      </trkpt>
      <trkpt lat="48.14988" lon="6.88736">
        <ele>692.29</ele>
        <time>2018-04-30T13:30:40Z</time>
      </trkpt>
      <trkpt lat="48.1498" lon="6.88755">
        <ele>694.69</ele>
        <time>2018-04-30T13:30:57Z</time>
      </trkpt>
      <trkpt lat="48.14974" lon="6.88769">
        <ele>696.61</ele>
        <time>2018-04-30T13:31:11Z</time>
      </trkpt>
      <trkpt lat="48.14973" lon="6.8877">
        <ele>696.61</ele>
        <time>2018-04-30T13:31:12Z</time>
      </trkpt>
      <trkpt lat="48.14961" lon="6.88776">
        <ele>695.17</ele>
        <time>2018-04-30T13:31:26Z</time>
      </trkpt>
      <trkpt lat="48.14953" lon="6.88779">
        <ele>697.09</ele>
        <time>2018-04-30T13:31:37Z</time>
      </trkpt>
      <trkpt lat="48.14953" lon="6.88779">
        <ele>697.09</ele>
        <time>2018-04-30T13:31:38Z</time>
      </trkpt>
      <trkpt lat="48.14939" lon="6.88788">
        <ele>697.09</ele>
        <time>2018-04-30T13:31:54Z</time>
      </trkpt>
      <trkpt lat="48.14924" lon="6.88801">
        <ele>700.46</ele>
        <time>2018-04-30T13:32:10Z</time>
      </trkpt>
      <trkpt lat="48.14902" lon="6.88828">
        <ele>702.86</ele>
        <time>2018-04-30T13:32:37Z</time>
      </trkpt>
      <trkpt lat="48.14901" lon="6.8883">
        <ele>700.94</ele>
        <time>2018-04-30T13:32:40Z</time>
      </trkpt>
      <trkpt lat="48.14885" lon="6.8884">
        <ele>703.82</ele>
        <time>2018-04-30T13:32:57Z</time>
      </trkpt>
      <trkpt lat="48.14881" lon="6.88843">
        <ele>705.26</ele>
        <time>2018-04-30T13:33:02Z</time>
      </trkpt>
      <trkpt lat="48.14876" lon="6.88848">
        <ele>705.26</ele>
        <time>2018-04-30T13:33:09Z</time>
      </trkpt>
      <trkpt lat="48.14871" lon="6.88856">
        <ele>705.75</ele>
        <time>2018-04-30T13:33:17Z</time>
      </trkpt>
      <trkpt lat="48.14859" lon="6.88869">
        <ele>703.34</ele>
        <time>2018-04-30T13:33:32Z</time>
      </trkpt>
      <trkpt lat="48.14856" lon="6.88872">
        <ele>704.78</ele>
        <time>2018-04-30T13:33:36Z</time>
      </trkpt>
      <trkpt lat="48.14849" lon="6.8888">
        <ele>704.3</ele>
        <time>2018-04-30T13:33:45Z</time>
      </trkpt>
      <trkpt lat="48.14836" lon="6.88893">
        <ele>703.82</ele>
        <time>2018-04-30T13:34:01Z</time>
      </trkpt>
      <trkpt lat="48.14834" lon="6.88897">
        <ele>705.75</ele>
        <time>2018-04-30T13:34:05Z</time>
      </trkpt>
      <trkpt lat="48.14831" lon="6.88899">
        <ele>704.78</ele>
        <time>2018-04-30T13:34:08Z</time>
      </trkpt>
      <trkpt lat="48.14819" lon="6.88915">
        <ele>705.75</ele>
        <time>2018-04-30T13:34:26Z</time>
      </trkpt>
      <trkpt lat="48.14805" lon="6.88928">
        <ele>705.75</ele>
        <time>2018-04-30T13:34:43Z</time>
      </trkpt>
      <trkpt lat="48.14794" lon="6.88939">
        <ele>704.78</ele>
        <time>2018-04-30T13:35:01Z</time>
      </trkpt>
      <trkpt lat="48.14782" lon="6.88955">
        <ele>703.82</ele>
        <time>2018-04-30T13:35:20Z</time>
      </trkpt>
      <trkpt lat="48.14772" lon="6.88968">
        <ele>702.86</ele>
        <time>2018-04-30T13:35:35Z</time>
      </trkpt>
      <trkpt lat="48.14765" lon="6.88977">
        <ele>702.86</ele>
        <time>2018-04-30T13:35:46Z</time>
      </trkpt>
      <trkpt lat="48.14764" lon="6.88978">
        <ele>701.42</ele>
        <time>2018-04-30T13:35:48Z</time>
      </trkpt>
      <trkpt lat="48.14763" lon="6.88981">
        <ele>702.86</ele>
        <time>2018-04-30T13:35:51Z</time>
      </trkpt>
      <trkpt lat="48.14756" lon="6.88988">
        <ele>699.98</ele>
        <time>2018-04-30T13:36:00Z</time>
      </trkpt>
      <trkpt lat="48.14742" lon="6.89009">
        <ele>699.5</ele>
        <time>2018-04-30T13:36:24Z</time>
      </trkpt>
      <trkpt lat="48.14737" lon="6.89015">
        <ele>700.46</ele>
        <time>2018-04-30T13:36:30Z</time>
      </trkpt>
      <trkpt lat="48.14723" lon="6.8903">
        <ele>699.5</ele>
        <time>2018-04-30T13:36:52Z</time>
      </trkpt>
      <trkpt lat="48.14703" lon="6.89049">
        <ele>698.53</ele>
        <time>2018-04-30T13:37:15Z</time>
      </trkpt>
      <trkpt lat="48.14688" lon="6.89071">
        <ele>699.98</ele>
        <time>2018-04-30T13:37:32Z</time>
      </trkpt>
      <trkpt lat="48.14687" lon="6.89072">
        <ele>698.53</ele>
        <time>2018-04-30T13:37:34Z</time>
      </trkpt>
      <trkpt lat="48.14676" lon="6.8908">
        <ele>699.02</ele>
        <time>2018-04-30T13:37:43Z</time>
      </trkpt>
      <trkpt lat="48.1467" lon="6.89085">
        <ele>698.05</ele>
        <time>2018-04-30T13:37:50Z</time>
      </trkpt>
      <trkpt lat="48.14665" lon="6.89089">
        <ele>698.53</ele>
        <time>2018-04-30T13:37:55Z</time>
      </trkpt>
      <trkpt lat="48.14652" lon="6.891">
        <ele>697.57</ele>
        <time>2018-04-30T13:38:09Z</time>
      </trkpt>
      <trkpt lat="48.14645" lon="6.89115">
        <ele>697.09</ele>
        <time>2018-04-30T13:38:23Z</time>
      </trkpt>
      <trkpt lat="48.1465" lon="6.89129">
        <ele>697.09</ele>
        <time>2018-04-30T13:38:39Z</time>
      </trkpt>
      <trkpt lat="48.14657" lon="6.89149">
        <ele>698.53</ele>
        <time>2018-04-30T13:38:55Z</time>
      </trkpt>
      <trkpt lat="48.14665" lon="6.89167">
        <ele>698.53</ele>
        <time>2018-04-30T13:39:09Z</time>
      </trkpt>
      <trkpt lat="48.14665" lon="6.89168">
        <ele>698.53</ele>
        <time>2018-04-30T13:39:10Z</time>
      </trkpt>
      <trkpt lat="48.14668" lon="6.89174">
        <ele>696.61</ele>
        <time>2018-04-30T13:39:15Z</time>
      </trkpt>
      <trkpt lat="48.14673" lon="6.89184">
        <ele>698.53</ele>
        <time>2018-04-30T13:39:22Z</time>
      </trkpt>
      <trkpt lat="48.14674" lon="6.89185">
        <ele>698.53</ele>
        <time>2018-04-30T13:39:23Z</time>
      </trkpt>
      <trkpt lat="48.14675" lon="6.89191">
        <ele>700.94</ele>
        <time>2018-04-30T13:39:27Z</time>
      </trkpt>
      <trkpt lat="48.14674" lon="6.89198">
        <ele>698.53</ele>
        <time>2018-04-30T13:39:33Z</time>
      </trkpt>
      <trkpt lat="48.14667" lon="6.89204">
        <ele>698.53</ele>
        <time>2018-04-30T13:39:45Z</time>
      </trkpt>
      <trkpt lat="48.14655" lon="6.89212">
        <ele>699.5</ele>
        <time>2018-04-30T13:39:56Z</time>
      </trkpt>
      <trkpt lat="48.14652" lon="6.89213">
        <ele>699.98</ele>
        <time>2018-04-30T13:39:59Z</time>
      </trkpt>
      <trkpt lat="48.14644" lon="6.89219">
        <ele>699.98</ele>
        <time>2018-04-30T13:40:08Z</time>
      </trkpt>
      <trkpt lat="48.14637" lon="6.89223">
        <ele>700.46</ele>
        <time>2018-04-30T13:40:16Z</time>
      </trkpt>
      <trkpt lat="48.14635" lon="6.89224">
        <ele>699.02</ele>
        <time>2018-04-30T13:40:18Z</time>
      </trkpt>
      <trkpt lat="48.14633" lon="6.89226">
        <ele>698.53</ele>
        <time>2018-04-30T13:40:20Z</time>
      </trkpt>
      <trkpt lat="48.14623" lon="6.8923">
        <ele>699.02</ele>
        <time>2018-04-30T13:40:31Z</time>
      </trkpt>
      <trkpt lat="48.14622" lon="6.89231">
        <ele>699.02</ele>
        <time>2018-04-30T13:40:33Z</time>
      </trkpt>
      <trkpt lat="48.14625" lon="6.89234">
        <ele>699.98</ele>
        <time>2018-04-30T13:40:38Z</time>
      </trkpt>
      <trkpt lat="48.14635" lon="6.89237">
        <ele>700.46</ele>
        <time>2018-04-30T13:40:47Z</time>
      </trkpt>
      <trkpt lat="48.14638" lon="6.89238">
        <ele>700.46</ele>
        <time>2018-04-30T13:40:49Z</time>
      </trkpt>
      <trkpt lat="48.14644" lon="6.8924">
        <ele>700.46</ele>
        <time>2018-04-30T13:40:54Z</time>
      </trkpt>
      <trkpt lat="48.14663" lon="6.89248">
        <ele>698.53</ele>
        <time>2018-04-30T13:41:09Z</time>
      </trkpt>
      <trkpt lat="48.14673" lon="6.89253">
        <ele>699.98</ele>
        <time>2018-04-30T13:41:17Z</time>
      </trkpt>
      <trkpt lat="48.14679" lon="6.89256">
        <ele>698.05</ele>
        <time>2018-04-30T13:41:22Z</time>
      </trkpt>
      <trkpt lat="48.147" lon="6.89268">
        <ele>698.05</ele>
        <time>2018-04-30T13:41:40Z</time>
      </trkpt>
      <trkpt lat="48.14718" lon="6.89282">
        <ele>697.57</ele>
        <time>2018-04-30T13:41:58Z</time>
      </trkpt>
      <trkpt lat="48.14728" lon="6.89289">
        <ele>697.09</ele>
        <time>2018-04-30T13:42:10Z</time>
      </trkpt>
      <trkpt lat="48.14742" lon="6.89297">
        <ele>696.61</ele>
        <time>2018-04-30T13:42:24Z</time>
      </trkpt>
      <trkpt lat="48.14756" lon="6.89306">
        <ele>695.17</ele>
        <time>2018-04-30T13:42:38Z</time>
      </trkpt>
      <trkpt lat="48.14768" lon="6.89315">
        <ele>694.21</ele>
        <time>2018-04-30T13:42:52Z</time>
      </trkpt>
      <trkpt lat="48.14777" lon="6.89321">
        <ele>694.21</ele>
        <time>2018-04-30T13:43:05Z</time>
      </trkpt>
      <trkpt lat="48.14783" lon="6.89327">
        <ele>692.77</ele>
        <time>2018-04-30T13:43:16Z</time>
      </trkpt>
      <trkpt lat="48.1479" lon="6.89334">
        <ele>691.33</ele>
        <time>2018-04-30T13:43:24Z</time>
      </trkpt>
      <trkpt lat="48.14807" lon="6.89344">
        <ele>690.36</ele>
        <time>2018-04-30T13:43:39Z</time>
      </trkpt>
      <trkpt lat="48.14809" lon="6.89345">
        <ele>692.29</ele>
        <time>2018-04-30T13:43:41Z</time>
      </trkpt>
      <trkpt lat="48.14813" lon="6.89348">
        <ele>689.4</ele>
        <time>2018-04-30T13:43:46Z</time>
      </trkpt>
      <trkpt lat="48.14814" lon="6.89349">
        <ele>688.92</ele>
        <time>2018-04-30T13:43:47Z</time>
      </trkpt>
      <trkpt lat="48.14815" lon="6.8935">
        <ele>688.92</ele>
        <time>2018-04-30T13:43:49Z</time>
      </trkpt>
      <trkpt lat="48.14827" lon="6.89359">
        <ele>689.88</ele>
        <time>2018-04-30T13:44:04Z</time>
      </trkpt>
      <trkpt lat="48.14829" lon="6.89362">
        <ele>687.96</ele>
        <time>2018-04-30T13:44:07Z</time>
      </trkpt>
      <trkpt lat="48.14839" lon="6.89371">
        <ele>685.56</ele>
        <time>2018-04-30T13:44:19Z</time>
      </trkpt>
      <trkpt lat="48.14849" lon="6.89378">
        <ele>685.08</ele>
        <time>2018-04-30T13:44:33Z</time>
      </trkpt>
      <trkpt lat="48.14862" lon="6.89386">
        <ele>683.15</ele>
        <time>2018-04-30T13:44:48Z</time>
      </trkpt>
      <trkpt lat="48.14875" lon="6.89396">
        <ele>680.27</ele>
        <time>2018-04-30T13:45:03Z</time>
      </trkpt>
      <trkpt lat="48.14887" lon="6.89406">
        <ele>677.39</ele>
        <time>2018-04-30T13:45:16Z</time>
      </trkpt>
      <trkpt lat="48.14896" lon="6.89411">
        <ele>677.39</ele>
        <time>2018-04-30T13:45:31Z</time>
      </trkpt>
      <trkpt lat="48.14912" lon="6.89424">
        <ele>675.94</ele>
        <time>2018-04-30T13:45:48Z</time>
      </trkpt>
      <trkpt lat="48.14921" lon="6.8942">
        <ele>674.5</ele>
        <time>2018-04-30T13:46:01Z</time>
      </trkpt>
      <trkpt lat="48.1493" lon="6.89411">
        <ele>673.54</ele>
        <time>2018-04-30T13:46:16Z</time>
      </trkpt>
      <trkpt lat="48.14933" lon="6.89407">
        <ele>672.58</ele>
        <time>2018-04-30T13:46:20Z</time>
      </trkpt>
      <trkpt lat="48.14938" lon="6.89403">
        <ele>672.1</ele>
        <time>2018-04-30T13:46:24Z</time>
      </trkpt>
      <trkpt lat="48.14949" lon="6.89395">
        <ele>673.06</ele>
        <time>2018-04-30T13:46:36Z</time>
      </trkpt>
      <trkpt lat="48.14957" lon="6.89392">
        <ele>672.58</ele>
        <time>2018-04-30T13:46:43Z</time>
      </trkpt>
      <trkpt lat="48.1497" lon="6.89382">
        <ele>668.25</ele>
        <time>2018-04-30T13:46:56Z</time>
      </trkpt>
      <trkpt lat="48.14982" lon="6.89376">
        <ele>666.81</ele>
        <time>2018-04-30T13:47:11Z</time>
      </trkpt>
      <trkpt lat="48.14988" lon="6.89371">
        <ele>666.33</ele>
        <time>2018-04-30T13:47:19Z</time>
      </trkpt>
      <trkpt lat="48.1499" lon="6.89368">
        <ele>665.85</ele>
        <time>2018-04-30T13:47:23Z</time>
      </trkpt>
      <trkpt lat="48.14999" lon="6.8936">
        <ele>663.93</ele>
        <time>2018-04-30T13:47:37Z</time>
      </trkpt>
      <trkpt lat="48.15008" lon="6.89355">
        <ele>662.49</ele>
        <time>2018-04-30T13:47:48Z</time>
      </trkpt>
      <trkpt lat="48.15018" lon="6.89349">
        <ele>660.56</ele>
        <time>2018-04-30T13:47:59Z</time>
      </trkpt>
      <trkpt lat="48.15022" lon="6.89347">
        <ele>660.56</ele>
        <time>2018-04-30T13:48:01Z</time>
      </trkpt>
      <trkpt lat="48.15034" lon="6.89343">
        <ele>658.16</ele>
        <time>2018-04-30T13:48:10Z</time>
      </trkpt>
      <trkpt lat="48.15035" lon="6.89342">
        <ele>658.16</ele>
        <time>2018-04-30T13:48:12Z</time>
      </trkpt>
      <trkpt lat="48.15051" lon="6.8934">
        <ele>655.76</ele>
        <time>2018-04-30T13:48:26Z</time>
      </trkpt>
      <trkpt lat="48.15062" lon="6.89346">
        <ele>652.87</ele>
        <time>2018-04-30T13:48:39Z</time>
      </trkpt>
      <trkpt lat="48.15073" lon="6.8935">
        <ele>651.91</ele>
        <time>2018-04-30T13:48:51Z</time>
      </trkpt>
      <trkpt lat="48.15093" lon="6.89358">
        <ele>649.03</ele>
        <time>2018-04-30T13:49:06Z</time>
      </trkpt>
      <trkpt lat="48.15095" lon="6.89358">
        <ele>648.07</ele>
        <time>2018-04-30T13:49:08Z</time>
      </trkpt>
      <trkpt lat="48.15108" lon="6.89359">
        <ele>645.66</ele>
        <time>2018-04-30T13:49:21Z</time>
      </trkpt>
      <trkpt lat="48.15114" lon="6.89357">
        <ele>644.22</ele>
        <time>2018-04-30T13:49:28Z</time>
      </trkpt>
      <trkpt lat="48.15119" lon="6.89355">
        <ele>645.66</ele>
        <time>2018-04-30T13:49:39Z</time>
      </trkpt>
      <trkpt lat="48.15126" lon="6.89352">
        <ele>644.7</ele>
        <time>2018-04-30T13:49:56Z</time>
      </trkpt>
      <trkpt lat="48.15129" lon="6.89352">
        <ele>646.14</ele>
        <time>2018-04-30T13:50:06Z</time>
      </trkpt>
      <trkpt lat="48.15129" lon="6.89352">
        <ele>644.7</ele>
        <time>2018-04-30T13:50:09Z</time>
      </trkpt>
      <trkpt lat="48.15131" lon="6.89355">
        <ele>645.18</ele>
        <time>2018-04-30T13:50:32Z</time>
      </trkpt>
      <trkpt lat="48.15131" lon="6.89353">
        <ele>646.62</ele>
        <time>2018-04-30T13:50:36Z</time>
      </trkpt>
      <trkpt lat="48.15133" lon="6.89352">
        <ele>643.26</ele>
        <time>2018-04-30T13:50:40Z</time>
      </trkpt>
      <trkpt lat="48.15133" lon="6.89352">
        <ele>643.26</ele>
        <time>2018-04-30T13:50:41Z</time>
      </trkpt>
      <trkpt lat="48.15136" lon="6.89349">
        <ele>646.14</ele>
        <time>2018-04-30T13:50:47Z</time>
      </trkpt>
      <trkpt lat="48.15141" lon="6.89347">
        <ele>642.78</ele>
        <time>2018-04-30T13:50:53Z</time>
      </trkpt>
      <trkpt lat="48.15144" lon="6.89345">
        <ele>646.62</ele>
        <time>2018-04-30T13:50:56Z</time>
      </trkpt>
      <trkpt lat="48.15152" lon="6.89341">
        <ele>643.26</ele>
        <time>2018-04-30T13:51:02Z</time>
      </trkpt>
      <trkpt lat="48.15156" lon="6.89337">
        <ele>643.26</ele>
        <time>2018-04-30T13:51:07Z</time>
      </trkpt>
      <trkpt lat="48.15161" lon="6.89335">
        <ele>643.26</ele>
        <time>2018-04-30T13:51:11Z</time>
      </trkpt>
      <trkpt lat="48.15173" lon="6.89329">
        <ele>643.74</ele>
        <time>2018-04-30T13:51:22Z</time>
      </trkpt>
      <trkpt lat="48.15186" lon="6.89325">
        <ele>641.82</ele>
        <time>2018-04-30T13:51:33Z</time>
      </trkpt>
      <trkpt lat="48.15192" lon="6.89322">
        <ele>641.82</ele>
        <time>2018-04-30T13:51:44Z</time>
      </trkpt>
      <trkpt lat="48.15199" lon="6.89323">
        <ele>640.86</ele>
        <time>2018-04-30T13:51:56Z</time>
      </trkpt>
      <trkpt lat="48.15213" lon="6.89321">
        <ele>639.89</ele>
        <time>2018-04-30T13:52:11Z</time>
      </trkpt>
      <trkpt lat="48.15227" lon="6.89317">
        <ele>638.45</ele>
        <time>2018-04-30T13:52:25Z</time>
      </trkpt>
      <trkpt lat="48.15232" lon="6.89315">
        <ele>637.97</ele>
        <time>2018-04-30T13:52:41Z</time>
      </trkpt>
      <trkpt lat="48.15239" lon="6.89318">
        <ele>636.53</ele>
        <time>2018-04-30T13:52:55Z</time>
      </trkpt>
      <trkpt lat="48.15241" lon="6.89319">
        <ele>636.53</ele>
        <time>2018-04-30T13:53:08Z</time>
      </trkpt>
      <trkpt lat="48.15245" lon="6.89323">
        <ele>636.53</ele>
        <time>2018-04-30T13:53:37Z</time>
      </trkpt>
      <trkpt lat="48.15245" lon="6.89333">
        <ele>636.05</ele>
        <time>2018-04-30T13:54:10Z</time>
      </trkpt>
      <trkpt lat="48.15245" lon="6.89333">
        <ele>637.01</ele>
        <time>2018-04-30T13:54:17Z</time>
      </trkpt>
      <trkpt lat="48.15247" lon="6.89331">
        <ele>636.05</ele>
        <time>2018-04-30T13:54:47Z</time>
      </trkpt>
      <trkpt lat="48.15247" lon="6.89331">
        <ele>637.49</ele>
        <time>2018-04-30T13:54:51Z</time>
      </trkpt>
      <trkpt lat="48.15247" lon="6.89329">
        <ele>637.49</ele>
        <time>2018-04-30T13:55:20Z</time>
      </trkpt>
      <trkpt lat="48.15249" lon="6.89329">
        <ele>637.49</ele>
        <time>2018-04-30T13:55:42Z</time>
      </trkpt>
      <trkpt lat="48.15251" lon="6.89328">
        <ele>637.01</ele>
        <time>2018-04-30T13:55:45Z</time>
      </trkpt>
      <trkpt lat="48.15264" lon="6.89322">
        <ele>635.09</ele>
        <time>2018-04-30T13:55:59Z</time>
      </trkpt>
      <trkpt lat="48.15273" lon="6.89314">
        <ele>633.65</ele>
        <time>2018-04-30T13:56:10Z</time>
      </trkpt>
      <trkpt lat="48.15284" lon="6.89308">
        <ele>632.2</ele>
        <time>2018-04-30T13:56:23Z</time>
      </trkpt>
      <trkpt lat="48.15293" lon="6.89303">
        <ele>631.24</ele>
        <time>2018-04-30T13:56:34Z</time>
      </trkpt>
      <trkpt lat="48.15302" lon="6.89293">
        <ele>630.28</ele>
        <time>2018-04-30T13:56:45Z</time>
      </trkpt>
      <trkpt lat="48.15312" lon="6.89285">
        <ele>629.32</ele>
        <time>2018-04-30T13:56:53Z</time>
      </trkpt>
      <trkpt lat="48.15316" lon="6.89279">
        <ele>628.36</ele>
        <time>2018-04-30T13:56:59Z</time>
      </trkpt>
      <trkpt lat="48.15324" lon="6.89266">
        <ele>626.92</ele>
        <time>2018-04-30T13:57:12Z</time>
      </trkpt>
      <trkpt lat="48.15329" lon="6.89254">
        <ele>626.92</ele>
        <time>2018-04-30T13:57:26Z</time>
      </trkpt>
      <trkpt lat="48.15338" lon="6.89241">
        <ele>624.51</ele>
        <time>2018-04-30T13:57:40Z</time>
      </trkpt>
      <trkpt lat="48.15342" lon="6.89228">
        <ele>623.07</ele>
        <time>2018-04-30T13:57:52Z</time>
      </trkpt>
      <trkpt lat="48.15349" lon="6.8922">
        <ele>620.67</ele>
        <time>2018-04-30T13:58:02Z</time>
      </trkpt>
      <trkpt lat="48.15351" lon="6.89219">
        <ele>620.67</ele>
        <time>2018-04-30T13:58:04Z</time>
      </trkpt>
      <trkpt lat="48.15359" lon="6.89215">
        <ele>618.75</ele>
        <time>2018-04-30T13:58:15Z</time>
      </trkpt>
      <trkpt lat="48.1537" lon="6.89213">
        <ele>617.3</ele>
        <time>2018-04-30T13:58:29Z</time>
      </trkpt>
      <trkpt lat="48.15378" lon="6.89219">
        <ele>616.34</ele>
        <time>2018-04-30T13:58:42Z</time>
      </trkpt>
      <trkpt lat="48.15384" lon="6.89225">
        <ele>613.46</ele>
        <time>2018-04-30T13:58:54Z</time>
      </trkpt>
      <trkpt lat="48.15398" lon="6.8923">
        <ele>611.06</ele>
        <time>2018-04-30T13:59:09Z</time>
      </trkpt>
      <trkpt lat="48.15407" lon="6.89235">
        <ele>609.61</ele>
        <time>2018-04-30T13:59:24Z</time>
      </trkpt>
      <trkpt lat="48.1541" lon="6.89244">
        <ele>607.21</ele>
        <time>2018-04-30T13:59:36Z</time>
      </trkpt>
      <trkpt lat="48.15419" lon="6.89256">
        <ele>604.33</ele>
        <time>2018-04-30T13:59:51Z</time>
      </trkpt>
      <trkpt lat="48.15424" lon="6.89267">
        <ele>603.36</ele>
        <time>2018-04-30T14:00:03Z</time>
      </trkpt>
      <trkpt lat="48.15434" lon="6.89277">
        <ele>601.44</ele>
        <time>2018-04-30T14:00:19Z</time>
      </trkpt>
      <trkpt lat="48.15438" lon="6.89287">
        <ele>599.52</ele>
        <time>2018-04-30T14:00:31Z</time>
      </trkpt>
      <trkpt lat="48.15448" lon="6.89293">
        <ele>597.6</ele>
        <time>2018-04-30T14:00:43Z</time>
      </trkpt>
      <trkpt lat="48.15464" lon="6.89302">
        <ele>595.19</ele>
        <time>2018-04-30T14:00:58Z</time>
      </trkpt>
      <trkpt lat="48.15473" lon="6.89308">
        <ele>593.75</ele>
        <time>2018-04-30T14:01:11Z</time>
      </trkpt>
      <trkpt lat="48.15489" lon="6.89309">
        <ele>591.35</ele>
        <time>2018-04-30T14:01:27Z</time>
      </trkpt>
      <trkpt lat="48.15499" lon="6.89308">
        <ele>589.43</ele>
        <time>2018-04-30T14:01:40Z</time>
      </trkpt>
      <trkpt lat="48.15503" lon="6.89309">
        <ele>588.95</ele>
        <time>2018-04-30T14:01:45Z</time>
      </trkpt>
      <trkpt lat="48.15514" lon="6.89308">
        <ele>586.54</ele>
        <time>2018-04-30T14:02:00Z</time>
      </trkpt>
      <trkpt lat="48.15528" lon="6.89312">
        <ele>585.58</ele>
        <time>2018-04-30T14:02:15Z</time>
      </trkpt>
      <trkpt lat="48.15541" lon="6.89333">
        <ele>582.7</ele>
        <time>2018-04-30T14:02:35Z</time>
      </trkpt>
      <trkpt lat="48.15543" lon="6.89342">
        <ele>581.73</ele>
        <time>2018-04-30T14:02:42Z</time>
      </trkpt>
      <trkpt lat="48.15548" lon="6.89363">
        <ele>578.85</ele>
        <time>2018-04-30T14:02:59Z</time>
      </trkpt>
      <trkpt lat="48.15558" lon="6.89376">
        <ele>576.93</ele>
        <time>2018-04-30T14:03:14Z</time>
      </trkpt>
      <trkpt lat="48.15559" lon="6.89377">
        <ele>576.93</ele>
        <time>2018-04-30T14:03:15Z</time>
      </trkpt>
      <trkpt lat="48.15572" lon="6.89388">
        <ele>575.49</ele>
        <time>2018-04-30T14:03:31Z</time>
      </trkpt>
      <trkpt lat="48.15581" lon="6.89399">
        <ele>575.49</ele>
        <time>2018-04-30T14:03:43Z</time>
      </trkpt>
      <trkpt lat="48.15591" lon="6.89415">
        <ele>574.53</ele>
        <time>2018-04-30T14:03:58Z</time>
      </trkpt>
      <trkpt lat="48.15592" lon="6.89421">
        <ele>574.53</ele>
        <time>2018-04-30T14:04:13Z</time>
      </trkpt>
      <trkpt lat="48.15591" lon="6.89427">
        <ele>574.53</ele>
        <time>2018-04-30T14:04:33Z</time>
      </trkpt>
      <trkpt lat="48.15595" lon="6.89431">
        <ele>574.53</ele>
        <time>2018-04-30T14:04:54Z</time>
      </trkpt>
      <trkpt lat="48.15596" lon="6.89431">
        <ele>574.53</ele>
        <time>2018-04-30T14:04:56Z</time>
      </trkpt>
      <trkpt lat="48.15608" lon="6.89429">
        <ele>574.04</ele>
        <time>2018-04-30T14:05:12Z</time>
      </trkpt>
      <trkpt lat="48.15617" lon="6.89428">
        <ele>574.53</ele>
        <time>2018-04-30T14:05:24Z</time>
      </trkpt>
      <trkpt lat="48.15624" lon="6.89425">
        <ele>574.53</ele>
        <time>2018-04-30T14:05:37Z</time>
      </trkpt>
      <trkpt lat="48.15631" lon="6.89425">
        <ele>573.56</ele>
        <time>2018-04-30T14:05:48Z</time>
      </trkpt>
      <trkpt lat="48.15641" lon="6.89424">
        <ele>573.08</ele>
        <time>2018-04-30T14:06:00Z</time>
      </trkpt>
      <trkpt lat="48.15654" lon="6.89423">
        <ele>573.08</ele>
        <time>2018-04-30T14:06:13Z</time>
      </trkpt>
      <trkpt lat="48.15673" lon="6.89423">
        <ele>572.12</ele>
        <time>2018-04-30T14:06:31Z</time>
      </trkpt>
      <trkpt lat="48.15696" lon="6.89425">
        <ele>572.12</ele>
        <time>2018-04-30T14:06:50Z</time>
      </trkpt>
      <trkpt lat="48.15714" lon="6.89427">
        <ele>573.08</ele>
        <time>2018-04-30T14:07:02Z</time>
      </trkpt>
      <trkpt lat="48.15724" lon="6.89426">
        <ele>571.64</ele>
        <time>2018-04-30T14:07:10Z</time>
      </trkpt>
      <trkpt lat="48.15727" lon="6.89426">
        <ele>571.64</ele>
        <time>2018-04-30T14:07:12Z</time>
      </trkpt>
      <trkpt lat="48.15734" lon="6.89425">
        <ele>569.24</ele>
        <time>2018-04-30T14:07:18Z</time>
      </trkpt>
      <trkpt lat="48.15737" lon="6.89424">
        <ele>570.68</ele>
        <time>2018-04-30T14:07:21Z</time>
      </trkpt>
      <trkpt lat="48.15758" lon="6.89416">
        <ele>570.2</ele>
        <time>2018-04-30T14:07:40Z</time>
      </trkpt>
      <trkpt lat="48.15785" lon="6.89415">
        <ele>569.24</ele>
        <time>2018-04-30T14:08:02Z</time>
      </trkpt>
      <trkpt lat="48.15807" lon="6.89417">
        <ele>568.28</ele>
        <time>2018-04-30T14:08:22Z</time>
      </trkpt>
      <trkpt lat="48.15826" lon="6.89415">
        <ele>568.28</ele>
        <time>2018-04-30T14:08:42Z</time>
      </trkpt>
      <trkpt lat="48.15822" lon="6.89391">
        <ele>568.28</ele>
        <time>2018-04-30T14:09:00Z</time>
      </trkpt>
      <trkpt lat="48.15819" lon="6.89384">
        <ele>569.72</ele>
        <time>2018-04-30T14:09:06Z</time>
      </trkpt>
      <trkpt lat="48.15812" lon="6.89358">
        <ele>569.72</ele>
        <time>2018-04-30T14:09:25Z</time>
      </trkpt>
      <trkpt lat="48.15814" lon="6.89327">
        <ele>569.72</ele>
        <time>2018-04-30T14:09:45Z</time>
      </trkpt>
      <trkpt lat="48.15825" lon="6.89309">
        <ele>569.72</ele>
        <time>2018-04-30T14:10:03Z</time>
      </trkpt>
      <trkpt lat="48.15838" lon="6.89296">
        <ele>570.68</ele>
        <time>2018-04-30T14:10:21Z</time>
      </trkpt>
      <trkpt lat="48.15846" lon="6.89286">
        <ele>571.64</ele>
        <time>2018-04-30T14:10:37Z</time>
      </trkpt>
      <trkpt lat="48.15855" lon="6.89277">
        <ele>572.6</ele>
        <time>2018-04-30T14:10:56Z</time>
      </trkpt>
      <trkpt lat="48.15861" lon="6.89272">
        <ele>575.01</ele>
        <time>2018-04-30T14:11:12Z</time>
      </trkpt>
      <trkpt lat="48.15867" lon="6.89273">
        <ele>575.97</ele>
        <time>2018-04-30T14:11:26Z</time>
      </trkpt>
      <trkpt lat="48.15902" lon="6.89285">
        <ele>577.89</ele>
        <time>2018-04-30T14:11:42Z</time>
      </trkpt>
      <trkpt lat="48.15915" lon="6.89273">
        <ele>580.77</ele>
        <time>2018-04-30T14:11:58Z</time>
      </trkpt>
      <trkpt lat="48.15917" lon="6.8927">
        <ele>581.73</ele>
        <time>2018-04-30T14:12:00Z</time>
      </trkpt>
      <trkpt lat="48.15929" lon="6.89243">
        <ele>582.7</ele>
        <time>2018-04-30T14:12:23Z</time>
      </trkpt>
      <trkpt lat="48.1593" lon="6.89242">
        <ele>582.7</ele>
        <time>2018-04-30T14:12:42Z</time>
      </trkpt>
      <trkpt lat="48.15931" lon="6.89243">
        <ele>582.7</ele>
        <time>2018-04-30T14:13:01Z</time>
      </trkpt>
      <trkpt lat="48.1593" lon="6.89241">
        <ele>582.7</ele>
        <time>2018-04-30T14:13:21Z</time>
      </trkpt>
      <trkpt lat="48.15931" lon="6.89239">
        <ele>582.7</ele>
        <time>2018-04-30T14:13:36Z</time>
      </trkpt>
      <trkpt lat="48.15932" lon="6.89237">
        <ele>581.73</ele>
        <time>2018-04-30T14:13:51Z</time>
      </trkpt>
      <trkpt lat="48.15938" lon="6.89233">
        <ele>581.73</ele>
        <time>2018-04-30T14:14:04Z</time>
      </trkpt>
      <trkpt lat="48.15949" lon="6.89226">
        <ele>581.25</ele>
        <time>2018-04-30T14:14:17Z</time>
      </trkpt>
      <trkpt lat="48.1596" lon="6.89216">
        <ele>581.25</ele>
        <time>2018-04-30T14:14:31Z</time>
      </trkpt>
      <trkpt lat="48.1597" lon="6.89203">
        <ele>579.81</ele>
        <time>2018-04-30T14:14:46Z</time>
      </trkpt>
      <trkpt lat="48.15977" lon="6.8919">
        <ele>578.37</ele>
        <time>2018-04-30T14:14:59Z</time>
      </trkpt>
      <trkpt lat="48.15983" lon="6.89169">
        <ele>577.89</ele>
        <time>2018-04-30T14:15:15Z</time>
      </trkpt>
      <trkpt lat="48.15987" lon="6.89155">
        <ele>576.93</ele>
        <time>2018-04-30T14:15:30Z</time>
      </trkpt>
      <trkpt lat="48.15986" lon="6.89147">
        <ele>575.97</ele>
        <time>2018-04-30T14:15:52Z</time>
      </trkpt>
      <trkpt lat="48.15987" lon="6.89141">
        <ele>576.93</ele>
        <time>2018-04-30T14:16:06Z</time>
      </trkpt>
      <trkpt lat="48.15987" lon="6.8914">
        <ele>577.41</ele>
        <time>2018-04-30T14:16:29Z</time>
      </trkpt>
      <trkpt lat="48.15987" lon="6.8914">
        <ele>577.41</ele>
        <time>2018-04-30T14:16:52Z</time>
      </trkpt>
      <trkpt lat="48.15987" lon="6.89139">
        <ele>577.41</ele>
        <time>2018-04-30T14:17:18Z</time>
      </trkpt>
      <trkpt lat="48.15987" lon="6.89139">
        <ele>578.37</ele>
        <time>2018-04-30T14:17:38Z</time>
      </trkpt>
      <trkpt lat="48.15986" lon="6.89139">
        <ele>578.85</ele>
        <time>2018-04-30T14:18:04Z</time>
      </trkpt>
      <trkpt lat="48.15985" lon="6.89139">
        <ele>577.89</ele>
        <time>2018-04-30T14:18:27Z</time>
      </trkpt>
      <trkpt lat="48.15986" lon="6.8914">
        <ele>577.89</ele>
        <time>2018-04-30T14:19:00Z</time>
      </trkpt>
      <trkpt lat="48.15986" lon="6.8914">
        <ele>578.37</ele>
        <time>2018-04-30T14:19:21Z</time>
      </trkpt>
      <trkpt lat="48.15985" lon="6.89139">
        <ele>579.33</ele>
        <time>2018-04-30T14:19:33Z</time>
      </trkpt>
      <trkpt lat="48.15985" lon="6.89139">
        <ele>578.37</ele>
        <time>2018-04-30T14:19:59Z</time>
      </trkpt>
      <trkpt lat="48.15983" lon="6.89139">
        <ele>578.85</ele>
        <time>2018-04-30T14:20:18Z</time>
      </trkpt>
      <trkpt lat="48.15985" lon="6.89134">
        <ele>579.81</ele>
        <time>2018-04-30T14:20:41Z</time>
      </trkpt>
      <trkpt lat="48.15987" lon="6.89127">
        <ele>579.81</ele>
        <time>2018-04-30T14:20:54Z</time>
      </trkpt>
      <trkpt lat="48.15989" lon="6.89119">
        <ele>579.81</ele>
        <time>2018-04-30T14:21:06Z</time>
      </trkpt>
      <trkpt lat="48.15989" lon="6.89117">
        <ele>578.85</ele>
        <time>2018-04-30T14:21:08Z</time>
      </trkpt>
      <trkpt lat="48.15991" lon="6.8911">
        <ele>577.89</ele>
        <time>2018-04-30T14:21:19Z</time>
      </trkpt>
      <trkpt lat="48.15993" lon="6.89096">
        <ele>576.45</ele>
        <time>2018-04-30T14:21:32Z</time>
      </trkpt>
      <trkpt lat="48.15994" lon="6.89083">
        <ele>576.45</ele>
        <time>2018-04-30T14:21:42Z</time>
      </trkpt>
      <trkpt lat="48.15997" lon="6.89066">
        <ele>575.49</ele>
        <time>2018-04-30T14:21:56Z</time>
      </trkpt>
      <trkpt lat="48.15999" lon="6.89052">
        <ele>575.01</ele>
        <time>2018-04-30T14:22:09Z</time>
      </trkpt>
      <trkpt lat="48.16003" lon="6.89039">
        <ele>575.01</ele>
        <time>2018-04-30T14:22:22Z</time>
      </trkpt>
      <trkpt lat="48.16009" lon="6.89021">
        <ele>574.53</ele>
        <time>2018-04-30T14:22:38Z</time>
      </trkpt>
      <trkpt lat="48.16015" lon="6.89009">
        <ele>573.56</ele>
        <time>2018-04-30T14:22:52Z</time>
      </trkpt>
      <trkpt lat="48.16021" lon="6.88998">
        <ele>572.12</ele>
        <time>2018-04-30T14:23:04Z</time>
      </trkpt>
      <trkpt lat="48.16026" lon="6.88984">
        <ele>571.64</ele>
        <time>2018-04-30T14:23:16Z</time>
      </trkpt>
      <trkpt lat="48.16031" lon="6.88968">
        <ele>570.68</ele>
        <time>2018-04-30T14:23:29Z</time>
      </trkpt>
      <trkpt lat="48.16035" lon="6.88954">
        <ele>568.76</ele>
        <time>2018-04-30T14:23:43Z</time>
      </trkpt>
      <trkpt lat="48.16036" lon="6.88948">
        <ele>568.76</ele>
        <time>2018-04-30T14:23:52Z</time>
      </trkpt>
      <trkpt lat="48.16036" lon="6.8894">
        <ele>568.76</ele>
        <time>2018-04-30T14:23:58Z</time>
      </trkpt>
      <trkpt lat="48.16036" lon="6.88937">
        <ele>568.76</ele>
        <time>2018-04-30T14:24:00Z</time>
      </trkpt>
      <trkpt lat="48.16036" lon="6.88933">
        <ele>567.8</ele>
        <time>2018-04-30T14:24:03Z</time>
      </trkpt>
      <trkpt lat="48.16037" lon="6.88927">
        <ele>569.24</ele>
        <time>2018-04-30T14:24:09Z</time>
      </trkpt>
      <trkpt lat="48.16036" lon="6.88925">
        <ele>568.76</ele>
        <time>2018-04-30T14:24:18Z</time>
      </trkpt>
      <trkpt lat="48.16035" lon="6.88926">
        <ele>568.76</ele>
        <time>2018-04-30T14:24:31Z</time>
      </trkpt>
      <trkpt lat="48.16036" lon="6.88922">
        <ele>570.2</ele>
        <time>2018-04-30T14:24:54Z</time>
      </trkpt>
      <trkpt lat="48.16037" lon="6.88922">
        <ele>569.24</ele>
        <time>2018-04-30T14:25:18Z</time>
      </trkpt>
      <trkpt lat="48.16036" lon="6.88919">
        <ele>570.2</ele>
        <time>2018-04-30T14:25:26Z</time>
      </trkpt>
      <trkpt lat="48.16036" lon="6.88905">
        <ele>570.68</ele>
        <time>2018-04-30T14:25:36Z</time>
      </trkpt>
      <trkpt lat="48.16036" lon="6.889">
        <ele>569.72</ele>
        <time>2018-04-30T14:25:41Z</time>
      </trkpt>
      <trkpt lat="48.16036" lon="6.88897">
        <ele>569.24</ele>
        <time>2018-04-30T14:25:57Z</time>
      </trkpt>
      <trkpt lat="48.16036" lon="6.88896">
        <ele>570.68</ele>
        <time>2018-04-30T14:26:16Z</time>
      </trkpt>
      <trkpt lat="48.16036" lon="6.88895">
        <ele>570.68</ele>
        <time>2018-04-30T14:26:17Z</time>
      </trkpt>
      <trkpt lat="48.16035" lon="6.88894">
        <ele>570.68</ele>
        <time>2018-04-30T14:26:33Z</time>
      </trkpt>
      <trkpt lat="48.16036" lon="6.88871">
        <ele>570.68</ele>
        <time>2018-04-30T14:26:47Z</time>
      </trkpt>
      <trkpt lat="48.16037" lon="6.8885">
        <ele>567.8</ele>
        <time>2018-04-30T14:27:00Z</time>
      </trkpt>
      <trkpt lat="48.16038" lon="6.88826">
        <ele>568.76</ele>
        <time>2018-04-30T14:27:13Z</time>
      </trkpt>
      <trkpt lat="48.16039" lon="6.8879">
        <ele>569.72</ele>
        <time>2018-04-30T14:27:31Z</time>
      </trkpt>
      <trkpt lat="48.16044" lon="6.88762">
        <ele>569.72</ele>
        <time>2018-04-30T14:27:46Z</time>
      </trkpt>
      <trkpt lat="48.16047" lon="6.88734">
        <ele>570.68</ele>
        <time>2018-04-30T14:28:00Z</time>
      </trkpt>
      <trkpt lat="48.16048" lon="6.88721">
        <ele>571.64</ele>
        <time>2018-04-30T14:28:06Z</time>
      </trkpt>
      <trkpt lat="48.16053" lon="6.88695">
        <ele>571.64</ele>
        <time>2018-04-30T14:28:19Z</time>
      </trkpt>
      <trkpt lat="48.16059" lon="6.88678">
        <ele>570.2</ele>
        <time>2018-04-30T14:28:29Z</time>
      </trkpt>
      <trkpt lat="48.16062" lon="6.88669">
        <ele>570.2</ele>
        <time>2018-04-30T14:28:34Z</time>
      </trkpt>
      <trkpt lat="48.1607" lon="6.88652">
        <ele>568.28</ele>
        <time>2018-04-30T14:28:48Z</time>
      </trkpt>
      <trkpt lat="48.16073" lon="6.88645">
        <ele>566.83</ele>
        <time>2018-04-30T14:28:55Z</time>
      </trkpt>
      <trkpt lat="48.16085" lon="6.88634">
        <ele>564.91</ele>
        <time>2018-04-30T14:29:08Z</time>
      </trkpt>
      <trkpt lat="48.16094" lon="6.88624">
        <ele>563.47</ele>
        <time>2018-04-30T14:29:19Z</time>
      </trkpt>
      <trkpt lat="48.16102" lon="6.88617">
        <ele>562.51</ele>
        <time>2018-04-30T14:29:30Z</time>
      </trkpt>
      <trkpt lat="48.16115" lon="6.88611">
        <ele>562.51</ele>
        <time>2018-04-30T14:29:39Z</time>
      </trkpt>
      <trkpt lat="48.16123" lon="6.88603">
        <ele>562.99</ele>
        <time>2018-04-30T14:29:54Z</time>
      </trkpt>
      <trkpt lat="48.16127" lon="6.88601">
        <ele>561.55</ele>
        <time>2018-04-30T14:29:57Z</time>
      </trkpt>
      <trkpt lat="48.16132" lon="6.88595">
        <ele>561.55</ele>
        <time>2018-04-30T14:30:11Z</time>
      </trkpt>
      <trkpt lat="48.16136" lon="6.88592">
        <ele>561.07</ele>
        <time>2018-04-30T14:30:27Z</time>
      </trkpt>
      <trkpt lat="48.16147" lon="6.88583">
        <ele>560.11</ele>
        <time>2018-04-30T14:30:43Z</time>
      </trkpt>
      <trkpt lat="48.16159" lon="6.88572">
        <ele>559.62</ele>
        <time>2018-04-30T14:30:57Z</time>
      </trkpt>
      <trkpt lat="48.16168" lon="6.88557">
        <ele>558.18</ele>
        <time>2018-04-30T14:31:10Z</time>
      </trkpt>
      <trkpt lat="48.16176" lon="6.8854">
        <ele>557.7</ele>
        <time>2018-04-30T14:31:24Z</time>
      </trkpt>
      <trkpt lat="48.16178" lon="6.88541">
        <ele>557.7</ele>
        <time>2018-04-30T14:31:38Z</time>
      </trkpt>
      <trkpt lat="48.16182" lon="6.88544">
        <ele>557.22</ele>
        <time>2018-04-30T14:32:13Z</time>
      </trkpt>
      <trkpt lat="48.16186" lon="6.88534">
        <ele>557.22</ele>
        <time>2018-04-30T14:32:24Z</time>
      </trkpt>
      <trkpt lat="48.16194" lon="6.88524">
        <ele>556.74</ele>
        <time>2018-04-30T14:32:32Z</time>
      </trkpt>
      <trkpt lat="48.16222" lon="6.88511">
        <ele>555.3</ele>
        <time>2018-04-30T14:32:48Z</time>
      </trkpt>
      <trkpt lat="48.16243" lon="6.88508">
        <ele>554.82</ele>
        <time>2018-04-30T14:33:03Z</time>
      </trkpt>
      <trkpt lat="48.16269" lon="6.88497">
        <ele>554.82</ele>
        <time>2018-04-30T14:33:21Z</time>
      </trkpt>
      <trkpt lat="48.16289" lon="6.88476">
        <ele>556.26</ele>
        <time>2018-04-30T14:33:37Z</time>
      </trkpt>
      <trkpt lat="48.16304" lon="6.88461">
        <ele>556.26</ele>
        <time>2018-04-30T14:33:53Z</time>
      </trkpt>
      <trkpt lat="48.16313" lon="6.88452">
        <ele>556.74</ele>
        <time>2018-04-30T14:34:06Z</time>
      </trkpt>
      <trkpt lat="48.16319" lon="6.88446">
        <ele>557.7</ele>
        <time>2018-04-30T14:34:18Z</time>
      </trkpt>
      <trkpt lat="48.16329" lon="6.88435">
        <ele>558.18</ele>
        <time>2018-04-30T14:34:30Z</time>
      </trkpt>
      <trkpt lat="48.16339" lon="6.8842">
        <ele>559.14</ele>
        <time>2018-04-30T14:34:43Z</time>
      </trkpt>
      <trkpt lat="48.1635" lon="6.88408">
        <ele>560.59</ele>
        <time>2018-04-30T14:34:54Z</time>
      </trkpt>
      <trkpt lat="48.16363" lon="6.88387">
        <ele>561.55</ele>
        <time>2018-04-30T14:35:10Z</time>
      </trkpt>
      <trkpt lat="48.16373" lon="6.88368">
        <ele>562.03</ele>
        <time>2018-04-30T14:35:24Z</time>
      </trkpt>
      <trkpt lat="48.16375" lon="6.88362">
        <ele>563.47</ele>
        <time>2018-04-30T14:35:28Z</time>
      </trkpt>
      <trkpt lat="48.16383" lon="6.88337">
        <ele>563.47</ele>
        <time>2018-04-30T14:35:43Z</time>
      </trkpt>
      <trkpt lat="48.16384" lon="6.88312">
        <ele>564.91</ele>
        <time>2018-04-30T14:35:57Z</time>
      </trkpt>
      <trkpt lat="48.16387" lon="6.88291">
        <ele>565.87</ele>
        <time>2018-04-30T14:36:08Z</time>
      </trkpt>
      <trkpt lat="48.16394" lon="6.88268">
        <ele>565.87</ele>
        <time>2018-04-30T14:36:23Z</time>
      </trkpt>
      <trkpt lat="48.16396" lon="6.88261">
        <ele>565.87</ele>
        <time>2018-04-30T14:36:28Z</time>
      </trkpt>
      <trkpt lat="48.16405" lon="6.88236">
        <ele>564.43</ele>
        <time>2018-04-30T14:36:44Z</time>
      </trkpt>
      <trkpt lat="48.16414" lon="6.8821">
        <ele>563.47</ele>
        <time>2018-04-30T14:37:00Z</time>
      </trkpt>
      <trkpt lat="48.16424" lon="6.8818">
        <ele>563.47</ele>
        <time>2018-04-30T14:37:19Z</time>
      </trkpt>
      <trkpt lat="48.16425" lon="6.88173">
        <ele>563.47</ele>
        <time>2018-04-30T14:37:23Z</time>
      </trkpt>
      <trkpt lat="48.16428" lon="6.88166">
        <ele>563.47</ele>
        <time>2018-04-30T14:37:28Z</time>
      </trkpt>
      <trkpt lat="48.16436" lon="6.88135">
        <ele>563.95</ele>
        <time>2018-04-30T14:37:46Z</time>
      </trkpt>
      <trkpt lat="48.1644" lon="6.8813">
        <ele>562.99</ele>
        <time>2018-04-30T14:37:50Z</time>
      </trkpt>
      <trkpt lat="48.16455" lon="6.88107">
        <ele>561.55</ele>
        <time>2018-04-30T14:38:08Z</time>
      </trkpt>
      <trkpt lat="48.16468" lon="6.88085">
        <ele>561.07</ele>
        <time>2018-04-30T14:38:24Z</time>
      </trkpt>
      <trkpt lat="48.16468" lon="6.88084">
        <ele>561.07</ele>
        <time>2018-04-30T14:38:25Z</time>
      </trkpt>
      <trkpt lat="48.16478" lon="6.88058">
        <ele>560.59</ele>
        <time>2018-04-30T14:38:42Z</time>
      </trkpt>
      <trkpt lat="48.16486" lon="6.88036">
        <ele>560.59</ele>
        <time>2018-04-30T14:38:57Z</time>
      </trkpt>
      <trkpt lat="48.16492" lon="6.88015">
        <ele>560.11</ele>
        <time>2018-04-30T14:39:12Z</time>
      </trkpt>
      <trkpt lat="48.16493" lon="6.88014">
        <ele>560.11</ele>
        <time>2018-04-30T14:39:13Z</time>
      </trkpt>
      <trkpt lat="48.16504" lon="6.88">
        <ele>559.62</ele>
        <time>2018-04-30T14:39:27Z</time>
      </trkpt>
      <trkpt lat="48.16512" lon="6.88">
        <ele>558.18</ele>
        <time>2018-04-30T14:39:35Z</time>
      </trkpt>
      <trkpt lat="48.16516" lon="6.88004">
        <ele>558.18</ele>
        <time>2018-04-30T14:39:40Z</time>
      </trkpt>
      <trkpt lat="48.16518" lon="6.88004">
        <ele>558.18</ele>
        <time>2018-04-30T14:39:43Z</time>
      </trkpt>
      <trkpt lat="48.16534" lon="6.88006">
        <ele>557.7</ele>
        <time>2018-04-30T14:39:58Z</time>
      </trkpt>
      <trkpt lat="48.16554" lon="6.88008">
        <ele>556.74</ele>
        <time>2018-04-30T14:40:16Z</time>
      </trkpt>
      <trkpt lat="48.16576" lon="6.88011">
        <ele>555.78</ele>
        <time>2018-04-30T14:40:35Z</time>
      </trkpt>
      <trkpt lat="48.16596" lon="6.88015">
        <ele>555.3</ele>
        <time>2018-04-30T14:40:52Z</time>
      </trkpt>
      <trkpt lat="48.16613" lon="6.88018">
        <ele>554.34</ele>
        <time>2018-04-30T14:41:08Z</time>
      </trkpt>
      <trkpt lat="48.1663" lon="6.88018">
        <ele>553.86</ele>
        <time>2018-04-30T14:41:24Z</time>
      </trkpt>
      <trkpt lat="48.16647" lon="6.88015">
        <ele>552.9</ele>
        <time>2018-04-30T14:41:40Z</time>
      </trkpt>
      <trkpt lat="48.16662" lon="6.88009">
        <ele>551.93</ele>
        <time>2018-04-30T14:41:55Z</time>
      </trkpt>
      <trkpt lat="48.16667" lon="6.88008">
        <ele>550.49</ele>
        <time>2018-04-30T14:41:59Z</time>
      </trkpt>
      <trkpt lat="48.16688" lon="6.88">
        <ele>550.49</ele>
        <time>2018-04-30T14:42:17Z</time>
      </trkpt>
      <trkpt lat="48.16701" lon="6.87998">
        <ele>550.49</ele>
        <time>2018-04-30T14:42:29Z</time>
      </trkpt>
      <trkpt lat="48.16717" lon="6.87998">
        <ele>550.49</ele>
        <time>2018-04-30T14:42:45Z</time>
      </trkpt>
      <trkpt lat="48.16732" lon="6.87997">
        <ele>549.53</ele>
        <time>2018-04-30T14:42:59Z</time>
      </trkpt>
      <trkpt lat="48.16748" lon="6.87995">
        <ele>549.53</ele>
        <time>2018-04-30T14:43:15Z</time>
      </trkpt>
      <trkpt lat="48.16764" lon="6.87992">
        <ele>549.05</ele>
        <time>2018-04-30T14:43:30Z</time>
      </trkpt>
      <trkpt lat="48.16781" lon="6.87992">
        <ele>547.61</ele>
        <time>2018-04-30T14:43:46Z</time>
      </trkpt>
      <trkpt lat="48.16796" lon="6.8799">
        <ele>546.65</ele>
        <time>2018-04-30T14:44:00Z</time>
      </trkpt>
      <trkpt lat="48.16811" lon="6.87989">
        <ele>546.17</ele>
        <time>2018-04-30T14:44:15Z</time>
      </trkpt>
      <trkpt lat="48.16832" lon="6.87993">
        <ele>546.17</ele>
        <time>2018-04-30T14:44:33Z</time>
      </trkpt>
      <trkpt lat="48.16843" lon="6.87995">
        <ele>546.17</ele>
        <time>2018-04-30T14:44:44Z</time>
      </trkpt>
      <trkpt lat="48.16856" lon="6.87997">
        <ele>546.17</ele>
        <time>2018-04-30T14:44:57Z</time>
      </trkpt>
      <trkpt lat="48.16869" lon="6.87999">
        <ele>545.69</ele>
        <time>2018-04-30T14:45:12Z</time>
      </trkpt>
      <trkpt lat="48.16882" lon="6.88">
        <ele>544.72</ele>
        <time>2018-04-30T14:45:25Z</time>
      </trkpt>
      <trkpt lat="48.16895" lon="6.88004">
        <ele>544.72</ele>
        <time>2018-04-30T14:45:38Z</time>
      </trkpt>
      <trkpt lat="48.16905" lon="6.88008">
        <ele>544.24</ele>
        <time>2018-04-30T14:45:49Z</time>
      </trkpt>
      <trkpt lat="48.16913" lon="6.88011">
        <ele>544.24</ele>
        <time>2018-04-30T14:45:56Z</time>
      </trkpt>
      <trkpt lat="48.16928" lon="6.88016">
        <ele>544.24</ele>
        <time>2018-04-30T14:46:11Z</time>
      </trkpt>
      <trkpt lat="48.16929" lon="6.88003">
        <ele>544.24</ele>
        <time>2018-04-30T14:46:24Z</time>
      </trkpt>
      <trkpt lat="48.16929" lon="6.87993">
        <ele>545.69</ele>
        <time>2018-04-30T14:46:32Z</time>
      </trkpt>
      <trkpt lat="48.16938" lon="6.87981">
        <ele>545.69</ele>
        <time>2018-04-30T14:46:46Z</time>
      </trkpt>
      <trkpt lat="48.1695" lon="6.87976">
        <ele>545.69</ele>
        <time>2018-04-30T14:47:04Z</time>
      </trkpt>
      <trkpt lat="48.16973" lon="6.87962">
        <ele>546.65</ele>
        <time>2018-04-30T14:47:24Z</time>
      </trkpt>
      <trkpt lat="48.16989" lon="6.87953">
        <ele>546.65</ele>
        <time>2018-04-30T14:47:40Z</time>
      </trkpt>
      <trkpt lat="48.17001" lon="6.87945">
        <ele>547.13</ele>
        <time>2018-04-30T14:47:53Z</time>
      </trkpt>
      <trkpt lat="48.17016" lon="6.87936">
        <ele>547.61</ele>
        <time>2018-04-30T14:48:08Z</time>
      </trkpt>
      <trkpt lat="48.17032" lon="6.87929">
        <ele>546.17</ele>
        <time>2018-04-30T14:48:22Z</time>
      </trkpt>
      <trkpt lat="48.17056" lon="6.87918">
        <ele>545.69</ele>
        <time>2018-04-30T14:48:41Z</time>
      </trkpt>
      <trkpt lat="48.1707" lon="6.87914">
        <ele>547.13</ele>
        <time>2018-04-30T14:48:52Z</time>
      </trkpt>
      <trkpt lat="48.17088" lon="6.87902">
        <ele>545.2</ele>
        <time>2018-04-30T14:49:12Z</time>
      </trkpt>
      <trkpt lat="48.17094" lon="6.87897">
        <ele>546.65</ele>
        <time>2018-04-30T14:49:19Z</time>
      </trkpt>
      <trkpt lat="48.17101" lon="6.87889">
        <ele>545.2</ele>
        <time>2018-04-30T14:49:28Z</time>
      </trkpt>
      <trkpt lat="48.17114" lon="6.87878">
        <ele>544.24</ele>
        <time>2018-04-30T14:49:42Z</time>
      </trkpt>
      <trkpt lat="48.17133" lon="6.87863">
        <ele>542.8</ele>
        <time>2018-04-30T14:49:58Z</time>
      </trkpt>
      <trkpt lat="48.17146" lon="6.87855">
        <ele>541.84</ele>
        <time>2018-04-30T14:50:12Z</time>
      </trkpt>
      <trkpt lat="48.17161" lon="6.87841">
        <ele>539.44</ele>
        <time>2018-04-30T14:50:28Z</time>
      </trkpt>
      <trkpt lat="48.17179" lon="6.87828">
        <ele>536.55</ele>
        <time>2018-04-30T14:50:45Z</time>
      </trkpt>
      <trkpt lat="48.17194" lon="6.87817">
        <ele>536.07</ele>
        <time>2018-04-30T14:50:59Z</time>
      </trkpt>
      <trkpt lat="48.17199" lon="6.87814">
        <ele>537.51</ele>
        <time>2018-04-30T14:51:04Z</time>
      </trkpt>
      <trkpt lat="48.17203" lon="6.87812">
        <ele>535.11</ele>
        <time>2018-04-30T14:51:09Z</time>
      </trkpt>
      <trkpt lat="48.17208" lon="6.87811">
        <ele>536.55</ele>
        <time>2018-04-30T14:51:14Z</time>
      </trkpt>
      <trkpt lat="48.17211" lon="6.87812">
        <ele>536.55</ele>
        <time>2018-04-30T14:51:16Z</time>
      </trkpt>
      <trkpt lat="48.17215" lon="6.87814">
        <ele>537.03</ele>
        <time>2018-04-30T14:51:19Z</time>
      </trkpt>
      <trkpt lat="48.17223" lon="6.87815">
        <ele>537.51</ele>
        <time>2018-04-30T14:51:26Z</time>
      </trkpt>
      <trkpt lat="48.17224" lon="6.87813">
        <ele>535.59</ele>
        <time>2018-04-30T14:51:28Z</time>
      </trkpt>
      <trkpt lat="48.17225" lon="6.87809">
        <ele>533.67</ele>
        <time>2018-04-30T14:51:31Z</time>
      </trkpt>
      <trkpt lat="48.17225" lon="6.87806">
        <ele>536.55</ele>
        <time>2018-04-30T14:51:33Z</time>
      </trkpt>
      <trkpt lat="48.1723" lon="6.87793">
        <ele>537.99</ele>
        <time>2018-04-30T14:51:44Z</time>
      </trkpt>
      <trkpt lat="48.17228" lon="6.87787">
        <ele>537.99</ele>
        <time>2018-04-30T14:51:55Z</time>
      </trkpt>
      <trkpt lat="48.17229" lon="6.87786">
        <ele>538.96</ele>
        <time>2018-04-30T14:52:18Z</time>
      </trkpt>
      <trkpt lat="48.1723" lon="6.87792">
        <ele>538.48</ele>
        <time>2018-04-30T14:52:46Z</time>
      </trkpt>
      <trkpt lat="48.17233" lon="6.87787">
        <ele>538.48</ele>
        <time>2018-04-30T14:52:58Z</time>
      </trkpt>
      <trkpt lat="48.17234" lon="6.87784">
        <ele>538.48</ele>
        <time>2018-04-30T14:53:00Z</time>
      </trkpt>
      <trkpt lat="48.17239" lon="6.87777">
        <ele>537.03</ele>
        <time>2018-04-30T14:53:10Z</time>
      </trkpt>
      <trkpt lat="48.17237" lon="6.87775">
        <ele>537.03</ele>
        <time>2018-04-30T14:53:26Z</time>
      </trkpt>
      <trkpt lat="48.17237" lon="6.87773">
        <ele>536.55</ele>
        <time>2018-04-30T14:53:49Z</time>
      </trkpt>
      <trkpt lat="48.17237" lon="6.87772">
        <ele>537.99</ele>
        <time>2018-04-30T14:53:57Z</time>
      </trkpt>
      <trkpt lat="48.17236" lon="6.87773">
        <ele>537.03</ele>
        <time>2018-04-30T14:54:12Z</time>
      </trkpt>
      <trkpt lat="48.17236" lon="6.87773">
        <ele>537.99</ele>
        <time>2018-04-30T14:54:21Z</time>
      </trkpt>
    </trkseg>
  </trk>
</gpx>